Observation data for Coyanosa on 11/17/2019      Previous  Date  Next       Current Mesonet Observations  Soil Data  Daily Summary Page  Observations in Plain Language
KCO1 170600Z 08003KT 06/04 A2999 RMK A01 T00590041  RH  088%=      5-min Rain = 0
KCO1 170601Z 08003KT 06/04 A2999 RMK A01 T00590041  RH  088%=      5-min Rain = 0
KCO1 170602Z 09003KT 06/04 A2999 RMK A01 T00590040  RH  088%=      5-min Rain = 0
KCO1 170603Z 08003KT 06/04 A2999 RMK A01 T00590040  RH  088%=      5-min Rain = 0
KCO1 170604Z 08002KT 06/04 A2999 RMK A01 T00580040  RH  088%=      5-min Rain = 0
KCO1 170605Z 07002KT 06/04 A2999 RMK A01 T00580040  RH  088%=      5-min Rain = 0
KCO1 170606Z 06002KT 06/04 A2999 RMK A01 T00580041  RH  089%=      5-min Rain = 0
KCO1 170607Z 06001KT 06/04 A2999 RMK A01 T00590042  RH  089%=      5-min Rain = 0
KCO1 170608Z 06001KT 06/04 A2999 RMK A01 T00600043  RH  089%=      5-min Rain = 0
KCO1 170609Z 06001KT 06/04 A2999 RMK A01 T00600043  RH  089%=      5-min Rain = 0
KCO1 170610Z 06000KT 06/05 A2999 RMK A01 T00620045  RH  089%=      5-min Rain = 0
KCO1 170611Z 00000KT 06/05 A2999 RMK A01 T00620045  RH  089%=      5-min Rain = 0
KCO1 170612Z 00000KT 06/04 A2999 RMK A01 T00620044  RH  088%=      5-min Rain = 0
KCO1 170613Z 00000KT 06/04 A2999 RMK A01 T00620044  RH  088%=      5-min Rain = 0
KCO1 170614Z 00000KT 06/04 A2999 RMK A01 T00630044  RH  088%=      5-min Rain = 0
KCO1 170615Z 00000KT 06/04 A2999 RMK A01 T00630044  RH  088%=      5-min Rain = 0
KCO1 170616Z 00000KT 06/05 A2998 RMK A01 T00630045  RH  088%=      5-min Rain = 0
KCO1 170617Z 18001KT 06/05 A2998 RMK A01 T00640046  RH  088%=      5-min Rain = 0
KCO1 170618Z 18002KT 07/05 A2998 RMK A01 T00650046  RH  087%=      5-min Rain = 0
KCO1 170619Z 19002KT 07/05 A2998 RMK A01 T00660045  RH  087%=      5-min Rain = 0
KCO1 170620Z 20001KT 07/04 A2998 RMK A01 T00650044  RH  086%=      5-min Rain = 0
KCO1 170621Z 20001KT 06/04 A2998 RMK A01 T00640042  RH  086%=      5-min Rain = 0
KCO1 170622Z 18001KT 06/04 A2998 RMK A01 T00640043  RH  086%=      5-min Rain = 0
KCO1 170623Z 16001KT 06/04 A2998 RMK A01 T00640042  RH  086%=      5-min Rain = 0
KCO1 170624Z 19001KT 06/04 A2998 RMK A01 T00640042  RH  086%=      5-min Rain = 0
KCO1 170625Z 17001KT 06/04 A2998 RMK A01 T00640042  RH  086%=      5-min Rain = 0
KCO1 170626Z 17000KT 06/04 A2998 RMK A01 T00630042  RH  086%=      5-min Rain = 0
KCO1 170627Z 19001KT 06/04 A2998 RMK A01 T00630042  RH  086%=      5-min Rain = 0
KCO1 170628Z 18001KT 06/04 A2998 RMK A01 T00640043  RH  087%=      5-min Rain = 0
KCO1 170629Z 20001KT 06/04 A2998 RMK A01 T00640043  RH  086%=      5-min Rain = 0
KCO1 170630Z 20001KT 06/04 A2998 RMK A01 T00630040  RH  085%=      5-min Rain = 0
KCO1 170631Z 21002KT 06/04 A2998 RMK A01 T00610037  RH  085%=      5-min Rain = 0
KCO1 170632Z 21001KT 06/04 A2998 RMK A01 T00600036  RH  085%=      5-min Rain = 0
KCO1 170633Z 21002KT 06/04 A2998 RMK A01 T00590036  RH  085%=      5-min Rain = 0
KCO1 170634Z 21002KT 06/04 A2998 RMK A01 T00590036  RH  085%=      5-min Rain = 0
KCO1 170635Z 20002KT 06/04 A2998 RMK A01 T00580036  RH  086%=      5-min Rain = 0
KCO1 170636Z 22001KT 06/04 A2998 RMK A01 T00580036  RH  086%=      5-min Rain = 0
KCO1 170637Z 21001KT 06/04 A2998 RMK A01 T00580037  RH  086%=      5-min Rain = 0
KCO1 170638Z 19001KT 06/04 A2998 RMK A01 T00580039  RH  087%=      5-min Rain = 0
KCO1 170639Z 00000KT 06/04 A2998 RMK A01 T00590040  RH  087%=      5-min Rain = 0
KCO1 170640Z 19000KT 06/04 A2998 RMK A01 T00590039  RH  087%=      5-min Rain = 0
KCO1 170641Z 19000KT 06/04 A2998 RMK A01 T00580038  RH  087%=      5-min Rain = 0
KCO1 170642Z 00000KT 06/04 A2998 RMK A01 T00570036  RH  087%=      5-min Rain = 0
KCO1 170643Z 00000KT 06/04 A2998 RMK A01 T00560036  RH  087%=      5-min Rain = 0
KCO1 170644Z 19000KT 06/04 A2998 RMK A01 T00560037  RH  088%=      5-min Rain = 0
KCO1 170645Z 19000KT 06/04 A2999 RMK A01 T00570038  RH  088%=      5-min Rain = 0
KCO1 170646Z 22000KT 06/04 A2998 RMK A01 T00570039  RH  088%=      5-min Rain = 0
KCO1 170647Z 34001KT 06/04 A2999 RMK A01 T00570040  RH  089%=      5-min Rain = 0
KCO1 170648Z 34001KT 06/04 A2998 RMK A01 T00570040  RH  089%=      5-min Rain = 0
KCO1 170649Z 34001KT 06/04 A2999 RMK A01 T00570040  RH  089%=      5-min Rain = 0
KCO1 170650Z 34000KT 06/04 A2998 RMK A01 T00570039  RH  088%=      5-min Rain = 0
KCO1 170651Z 34000KT 06/04 A2998 RMK A01 T00560038  RH  088%=      5-min Rain = 0
KCO1 170652Z 34000KT 06/04 A2998 RMK A01 T00560039  RH  089%=      5-min Rain = 0
KCO1 170653Z 34000KT 06/04 A2998 RMK A01 T00560039  RH  089%=      5-min Rain = 0
KCO1 170654Z 34000KT 06/04 A2999 RMK A01 T00560039  RH  089%=      5-min Rain = 0
KCO1 170655Z 34000KT 06/04 A2999 RMK A01 T00550037  RH  089%=      5-min Rain = 0
KCO1 170656Z 34000KT 05/04 A2999 RMK A01 T00540037  RH  088%=      5-min Rain = 0
KCO1 170657Z 34001KT 05/04 A2999 RMK A01 T00530036  RH  088%=      5-min Rain = 0
KCO1 170658Z 34001KT 05/04 A2999 RMK A01 T00530036  RH  089%=      5-min Rain = 0
KCO1 170659Z 00002KT 05/04 A2999 RMK A01 T00540038  RH  090%=      5-min Rain = 0
KCO1 170700Z 36003KT 06/04 A2999 RMK A01 T00560041  RH  090%=      5-min Rain = 0
KCO1 170701Z 01003KT 06/04 A2999 RMK A01 T00560042  RH  090%=      5-min Rain = 0
KCO1 170702Z 00003KT 06/04 A2999 RMK A01 T00570042  RH  090%=      5-min Rain = 0
KCO1 170703Z 01003KT 06/04 A2999 RMK A01 T00570042  RH  090%=      5-min Rain = 0
KCO1 170704Z 01003KT 06/04 A2999 RMK A01 T00570042  RH  090%=      5-min Rain = 0
KCO1 170705Z 02002KT 06/04 A2999 RMK A01 T00560040  RH  090%=      5-min Rain = 0
KCO1 170706Z 00002KT 06/04 A2999 RMK A01 T00560040  RH  089%=      5-min Rain = 0
KCO1 170707Z 00002KT 06/04 A2999 RMK A01 T00560040  RH  089%=      5-min Rain = 0
KCO1 170708Z 01002KT 06/04 A2999 RMK A01 T00560040  RH  090%=      5-min Rain = 0
KCO1 170709Z 01002KT 06/04 A2999 RMK A01 T00560040  RH  090%=      5-min Rain = 0
KCO1 170710Z 01002KT 06/04 A2999 RMK A01 T00550040  RH  090%=      5-min Rain = 0
KCO1 170711Z 02002KT 06/04 A2999 RMK A01 T00550039  RH  089%=      5-min Rain = 0
KCO1 170712Z 03002KT 05/04 A2999 RMK A01 T00540038  RH  089%=      5-min Rain = 0
KCO1 170713Z 02002KT 05/04 A30 RMK A01 T00540038  RH  089%=      5-min Rain = 0
KCO1 170714Z 00003KT 05/04 A30 RMK A01 T00540039  RH  090%=      5-min Rain = 0
KCO1 170715Z 01003KT 05/04 A30 RMK A01 T00540039  RH  090%=      5-min Rain = 0
KCO1 170716Z 01003KT 05/04 A30 RMK A01 T00540039  RH  090%=      5-min Rain = 0
KCO1 170717Z 01002KT 05/04 A30 RMK A01 T00540039  RH  090%=      5-min Rain = 0
KCO1 170718Z 02002KT 05/04 A2999 RMK A01 T00540039  RH  090%=      5-min Rain = 0
KCO1 170719Z 03003KT 05/04 A2999 RMK A01 T00540038  RH  090%=      5-min Rain = 0
KCO1 170720Z 04002KT 05/04 A2999 RMK A01 T00530038  RH  090%=      5-min Rain = 0
KCO1 170721Z 04002KT 05/04 A2999 RMK A01 T00530037  RH  090%=      5-min Rain = 0
KCO1 170722Z 03002KT 05/04 A2999 RMK A01 T00520037  RH  090%=      5-min Rain = 0
KCO1 170723Z 06002KT 05/04 A2999 RMK A01 T00520036  RH  090%=      5-min Rain = 0
KCO1 170724Z 09001KT 05/04 A2999 RMK A01 T00510035  RH  089%=      5-min Rain = 0
KCO1 170725Z 11002KT 05/03 A2999 RMK A01 T00490032  RH  089%=      5-min Rain = 0
KCO1 170726Z 11002KT 05/03 A2999 RMK A01 T00470030  RH  089%=      5-min Rain = 0
KCO1 170727Z 11002KT 05/03 A2999 RMK A01 T00460029  RH  089%=      5-min Rain = 0
KCO1 170728Z 11002KT 04/03 A2999 RMK A01 T00440028  RH  089%=      5-min Rain = 0
KCO1 170729Z 10001KT 04/03 A2999 RMK A01 T00440030  RH  090%=      5-min Rain = 0
KCO1 170730Z 11001KT 04/03 A2999 RMK A01 T00440030  RH  091%=      5-min Rain = 0
KCO1 170731Z 11000KT 04/03 A30 RMK A01 T00440030  RH  091%=      5-min Rain = 0
KCO1 170732Z 00000KT 04/03 A30 RMK A01 T00440031  RH  091%=      5-min Rain = 0
KCO1 170733Z 00000KT 05/03 A30 RMK A01 T00450033  RH  092%=      5-min Rain = 0
KCO1 170734Z 20001KT 05/03 A30 RMK A01 T00460034  RH  092%=      5-min Rain = 0
KCO1 170735Z 21001KT 05/03 A30 RMK A01 T00460034  RH  092%=      5-min Rain = 0
KCO1 170736Z 20000KT 05/04 A30 RMK A01 T00460035  RH  092%=      5-min Rain = 0
KCO1 170737Z 00000KT 05/03 A30 RMK A01 T00460034  RH  092%=      5-min Rain = 0
KCO1 170738Z 00000KT 05/03 A30 RMK A01 T00460033  RH  092%=      5-min Rain = 0
KCO1 170739Z 00000KT 05/03 A30 RMK A01 T00450033  RH  092%=      5-min Rain = 0
KCO1 170740Z 20000KT 05/03 A2999 RMK A01 T00450032  RH  092%=      5-min Rain = 0
KCO1 170741Z 20000KT 05/03 A2999 RMK A01 T00450033  RH  092%=      5-min Rain = 0
KCO1 170742Z 21001KT 05/04 A2999 RMK A01 T00460035  RH  093%=      5-min Rain = 0
KCO1 170743Z 21001KT 05/04 A2999 RMK A01 T00470037  RH  093%=      5-min Rain = 0
KCO1 170744Z 21001KT 05/04 A2999 RMK A01 T00490039  RH  093%=      5-min Rain = 0
KCO1 170745Z 21001KT 05/04 A2999 RMK A01 T00500040  RH  093%=      5-min Rain = 0
KCO1 170746Z 21000KT 05/04 A2999 RMK A01 T00500039  RH  093%=      5-min Rain = 0
KCO1 170747Z 21000KT 05/04 A2999 RMK A01 T00500040  RH  093%=      5-min Rain = 0
KCO1 170748Z 22001KT 05/04 A2999 RMK A01 T00510040  RH  093%=      5-min Rain = 0
KCO1 170749Z 23001KT 05/04 A2999 RMK A01 T00510040  RH  093%=      5-min Rain = 0
KCO1 170750Z 23001KT 05/04 A2999 RMK A01 T00510039  RH  092%=      5-min Rain = 0
KCO1 170751Z 23001KT 05/04 A2999 RMK A01 T00500037  RH  092%=      5-min Rain = 0
KCO1 170752Z 23001KT 05/04 A2999 RMK A01 T00480035  RH  091%=      5-min Rain = 0
KCO1 170753Z 23002KT 05/04 A2999 RMK A01 T00490037  RH  092%=      5-min Rain = 0
KCO1 170754Z 23002KT 05/04 A2999 RMK A01 T00500038  RH  092%=      5-min Rain = 0
KCO1 170755Z 23002KT 05/04 A2999 RMK A01 T00500037  RH  091%=      5-min Rain = 0
KCO1 170756Z 24003KT 05/03 A2999 RMK A01 T00480034  RH  091%=      5-min Rain = 0
KCO1 170757Z 24002KT 05/03 A2999 RMK A01 T00470033  RH  090%=      5-min Rain = 0
KCO1 170758Z 24002KT 05/03 A2999 RMK A01 T00460032  RH  090%=      5-min Rain = 0
KCO1 170759Z 24002KT 05/03 A2999 RMK A01 T00460032  RH  090%=      5-min Rain = 0
KCO1 170800Z 23003KT 05/03 A2999 RMK A01 T00460032  RH  091%=      5-min Rain = 0
KCO1 170801Z 23003KT 05/03 A2999 RMK A01 T00470034  RH  091%=      5-min Rain = 0
KCO1 170802Z 23003KT 05/03 A30 RMK A01 T00470034  RH  091%=      5-min Rain = 0
KCO1 170803Z 23003KT 05/03 A30 RMK A01 T00480034  RH  091%=      5-min Rain = 0
KCO1 170804Z 24003KT 05/04 A30 RMK A01 T00490036  RH  091%=      5-min Rain = 0
KCO1 170805Z 24003KT 05/04 A30 RMK A01 T00490036  RH  091%=      5-min Rain = 0
KCO1 170806Z 24003KT 05/04 A30 RMK A01 T00490036  RH  091%=      5-min Rain = 0
KCO1 170807Z 25003KT 05/04 A30 RMK A01 T00490035  RH  091%=      5-min Rain = 0
KCO1 170808Z 25003KT 05/04 A30 RMK A01 T00490035  RH  091%=      5-min Rain = 0
KCO1 170809Z 25003KT 05/04 A30 RMK A01 T00500036  RH  091%=      5-min Rain = 0
KCO1 170810Z 25003KT 05/04 A30 RMK A01 T00500036  RH  091%=      5-min Rain = 0
KCO1 170811Z 26003KT 05/04 A30 RMK A01 T00500036  RH  091%=      5-min Rain = 0
KCO1 170812Z 26003KT 05/04 A30 RMK A01 T00500035  RH  090%=      5-min Rain = 0
KCO1 170813Z 25003KT 05/04 A30 RMK A01 T00500035  RH  090%=      5-min Rain = 0
KCO1 170814Z 25004KT 05/03 A30 RMK A01 T00500034  RH  090%=      5-min Rain = 0
KCO1 170815Z 25004KT 05/04 A30 RMK A01 T00500035  RH  090%=      5-min Rain = 0
KCO1 170816Z 25004KT 05/04 A30 RMK A01 T00510036  RH  090%=      5-min Rain = 0
KCO1 170817Z 25004KT 05/04 A30 RMK A01 T00520036  RH  090%=      5-min Rain = 0
KCO1 170818Z 25005KT 05/04 A30 RMK A01 T00520037  RH  090%=      5-min Rain = 0
KCO1 170819Z 25005KT 05/04 A30 RMK A01 T00530037  RH  089%=      5-min Rain = 0
KCO1 170820Z 25006KT 05/04 A30 RMK A01 T00530037  RH  089%=      5-min Rain = 0
KCO1 170821Z 25006KT 05/04 A30 RMK A01 T00540037  RH  089%=      5-min Rain = 0
KCO1 170822Z 25006KT 05/04 A30 RMK A01 T00540038  RH  089%=      5-min Rain = 0
KCO1 170823Z 25006KT 06/04 A30 RMK A01 T00550037  RH  089%=      5-min Rain = 0
KCO1 170824Z 25006KT 06/04 A30 RMK A01 T00550038  RH  089%=      5-min Rain = 0
KCO1 170825Z 25007KT 06/04 A30 RMK A01 T00570040  RH  089%=      5-min Rain = 0
KCO1 170826Z 24006KT 06/04 A30 RMK A01 T00580040  RH  088%=      5-min Rain = 0
KCO1 170827Z 24006KT 06/04 A30 RMK A01 T00590040  RH  087%=      5-min Rain = 0
KCO1 170828Z 24005KT 06/04 A30 RMK A01 T00600040  RH  087%=      5-min Rain = 0
KCO1 170829Z 24005KT 06/04 A30 RMK A01 T00610040  RH  086%=      5-min Rain = 0
KCO1 170830Z 24005KT 06/04 A30 RMK A01 T00610039  RH  085%=      5-min Rain = 0
KCO1 170831Z 24004KT 06/04 A30 RMK A01 T00610038  RH  085%=      5-min Rain = 0
KCO1 170832Z 23005KT 06/04 A30 RMK A01 T00610037  RH  085%=      5-min Rain = 0
KCO1 170833Z 23005KT 06/04 A30 RMK A01 T00590036  RH  085%=      5-min Rain = 0
KCO1 170834Z 23005KT 06/04 A30 RMK A01 T00590035  RH  085%=      5-min Rain = 0
KCO1 170835Z 23005KT 06/03 A30 RMK A01 T00580034  RH  085%=      5-min Rain = 0
KCO1 170836Z 23005KT 06/03 A30 RMK A01 T00570033  RH  085%=      5-min Rain = 0
KCO1 170837Z 23005KT 06/03 A30 RMK A01 T00570033  RH  085%=      5-min Rain = 0
KCO1 170838Z 22005KT 06/03 A30 RMK A01 T00570033  RH  085%=      5-min Rain = 0
KCO1 170839Z 22005KT 06/03 A30 RMK A01 T00570033  RH  085%=      5-min Rain = 0
KCO1 170840Z 21005KT 06/03 A30 RMK A01 T00570032  RH  084%=      5-min Rain = 0
KCO1 170841Z 22005KT 06/03 A30 RMK A01 T00560031  RH  084%=      5-min Rain = 0
KCO1 170842Z 22006KT 06/03 A30 RMK A01 T00560032  RH  084%=      5-min Rain = 0
KCO1 170843Z 22006KT 06/03 A2999 RMK A01 T00550032  RH  085%=      5-min Rain = 0
KCO1 170844Z 22006KT 06/03 A2999 RMK A01 T00560033  RH  085%=      5-min Rain = 0
KCO1 170845Z 22007KT 06/03 A2999 RMK A01 T00570034  RH  085%=      5-min Rain = 0
KCO1 170846Z 22007KT 06/03 A2999 RMK A01 T00570034  RH  085%=      5-min Rain = 0
KCO1 170847Z 23007KT 06/04 A2999 RMK A01 T00580035  RH  085%=      5-min Rain = 0
KCO1 170848Z 22007KT 06/04 A2999 RMK A01 T00580035  RH  085%=      5-min Rain = 0
KCO1 170849Z 22007KT 06/04 A2999 RMK A01 T00590035  RH  085%=      5-min Rain = 0
KCO1 170850Z 22007KT 06/04 A2999 RMK A01 T00600036  RH  085%=      5-min Rain = 0
KCO1 170851Z 22007KT 06/04 A2999 RMK A01 T00610037  RH  085%=      5-min Rain = 0
KCO1 170852Z 22007KT 06/04 A2999 RMK A01 T00620037  RH  084%=      5-min Rain = 0
KCO1 170853Z 22007KT 06/04 A2999 RMK A01 T00630038  RH  084%=      5-min Rain = 0
KCO1 170854Z 22006KT 06/04 A2999 RMK A01 T00630038  RH  084%=      5-min Rain = 0
KCO1 170855Z 23006KT 06/04 A2999 RMK A01 T00640037  RH  083%=      5-min Rain = 0
KCO1 170856Z 23007KT 06/04 A2999 RMK A01 T00640037  RH  083%=      5-min Rain = 0
KCO1 170857Z 23007KT 06/04 A2999 RMK A01 T00630036  RH  083%=      5-min Rain = 0
KCO1 170858Z 23007KT 06/04 A2999 RMK A01 T00620035  RH  083%=      5-min Rain = 0
KCO1 170859Z 23007KT 06/04 A2999 RMK A01 T00620035  RH  083%=      5-min Rain = 0
KCO1 170900Z 23007KT 06/04 A2999 RMK A01 T00610035  RH  083%=      5-min Rain = 0
KCO1 170901Z 24006KT 06/04 A2999 RMK A01 T00610035  RH  083%=      5-min Rain = 0
KCO1 170902Z 24006KT 06/04 A2999 RMK A01 T00610035  RH  084%=      5-min Rain = 0
KCO1 170903Z 23006KT 06/04 A2999 RMK A01 T00610035  RH  084%=      5-min Rain = 0
KCO1 170904Z 23006KT 06/04 A2999 RMK A01 T00610035  RH  084%=      5-min Rain = 0
KCO1 170905Z 23006KT 06/04 A2999 RMK A01 T00610035  RH  084%=      5-min Rain = 0
KCO1 170906Z 23006KT 06/04 A2999 RMK A01 T00610035  RH  084%=      5-min Rain = 0
KCO1 170907Z 23006KT 06/03 A2999 RMK A01 T00610034  RH  083%=      5-min Rain = 0
KCO1 170908Z 23006KT 06/04 A2999 RMK A01 T00610035  RH  083%=      5-min Rain = 0
KCO1 170909Z 23006KT 06/03 A2999 RMK A01 T00610034  RH  083%=      5-min Rain = 0
KCO1 170910Z 22006KT 06/04 A2999 RMK A01 T00610035  RH  083%=      5-min Rain = 0
KCO1 170911Z 22006KT 06/04 A2999 RMK A01 T00610035  RH  083%=      5-min Rain = 0
KCO1 170912Z 22006KT 06/03 A2999 RMK A01 T00610034  RH  083%=      5-min Rain = 0
KCO1 170913Z 22006KT 06/04 A2999 RMK A01 T00610035  RH  083%=      5-min Rain = 0
KCO1 170914Z 21006KT 06/04 A2999 RMK A01 T00610035  RH  083%=      5-min Rain = 0
KCO1 170915Z 21006KT 06/03 A2999 RMK A01 T00600034  RH  083%=      5-min Rain = 0
KCO1 170916Z 21006KT 06/04 A2999 RMK A01 T00600035  RH  084%=      5-min Rain = 0
KCO1 170917Z 22006KT 06/04 A2999 RMK A01 T00600035  RH  084%=      5-min Rain = 0
KCO1 170918Z 22006KT 06/04 A2999 RMK A01 T00600035  RH  084%=      5-min Rain = 0
KCO1 170919Z 22007KT 06/04 A2999 RMK A01 T00600035  RH  084%=      5-min Rain = 0
KCO1 170920Z 22006KT 06/04 A2999 RMK A01 T00610035  RH  084%=      5-min Rain = 0
KCO1 170921Z 22007KT 06/04 A2999 RMK A01 T00610035  RH  084%=      5-min Rain = 0
KCO1 170922Z 22006KT 06/04 A30 RMK A01 T00610035  RH  084%=      5-min Rain = 0
KCO1 170923Z 23006KT 06/04 A30 RMK A01 T00620036  RH  083%=      5-min Rain = 0
KCO1 170924Z 24005KT 06/04 A30 RMK A01 T00620036  RH  083%=      5-min Rain = 0
KCO1 170925Z 24004KT 06/04 A30 RMK A01 T00620036  RH  083%=      5-min Rain = 0
KCO1 170926Z 25003KT 06/04 A30 RMK A01 T00630036  RH  083%=      5-min Rain = 0
KCO1 170927Z 29002KT 06/04 A30 RMK A01 T00630036  RH  083%=      5-min Rain = 0
KCO1 170928Z 32003KT 06/04 A30 RMK A01 T00640037  RH  083%=      5-min Rain = 0
KCO1 170929Z 33002KT 07/04 A30 RMK A01 T00650038  RH  083%=      5-min Rain = 0
KCO1 170930Z 33004KT 07/04 A30 RMK A01 T00660038  RH  082%=      5-min Rain = 0
KCO1 170931Z 32005KT 07/04 A30 RMK A01 T00650036  RH  082%=      5-min Rain = 0
KCO1 170932Z 32005KT 06/03 A30 RMK A01 T00640034  RH  082%=      5-min Rain = 0
KCO1 170933Z 31006KT 06/03 A30 RMK A01 T00620033  RH  082%=      5-min Rain = 0
KCO1 170934Z 31006KT 06/03 A30 RMK A01 T00600032  RH  082%=      5-min Rain = 0
KCO1 170935Z 31005KT 06/03 A30 RMK A01 T00590031  RH  083%=      5-min Rain = 0
KCO1 170936Z 31005KT 06/03 A30 RMK A01 T00570030  RH  083%=      5-min Rain = 0
KCO1 170937Z 31005KT 06/03 A30 RMK A01 T00560029  RH  083%=      5-min Rain = 0
KCO1 170938Z 31004KT 06/03 A30 RMK A01 T00550029  RH  083%=      5-min Rain = 0
KCO1 170939Z 31005KT 05/03 A30 RMK A01 T00540029  RH  084%=      5-min Rain = 0
KCO1 170940Z 31004KT 05/03 A30 RMK A01 T00530028  RH  084%=      5-min Rain = 0
KCO1 170941Z 30004KT 05/03 A30 RMK A01 T00520027  RH  084%=      5-min Rain = 0
KCO1 170942Z 30004KT 05/03 A30 RMK A01 T00510026  RH  084%=      5-min Rain = 0
KCO1 170943Z 29005KT 05/03 A3001 RMK A01 T00490026  RH  085%=      5-min Rain = 0
KCO1 170944Z 29006KT 05/03 A3001 RMK A01 T00480025  RH  085%=      5-min Rain = 0
KCO1 170945Z 28006KT 05/03 A3001 RMK A01 T00470025  RH  086%=      5-min Rain = 0
KCO1 170946Z 27006KT 05/03 A3001 RMK A01 T00470026  RH  086%=      5-min Rain = 0
KCO1 170947Z 27006KT 05/03 A30 RMK A01 T00470027  RH  087%=      5-min Rain = 0
KCO1 170948Z 27007KT 05/03 A30 RMK A01 T00470028  RH  087%=      5-min Rain = 0
KCO1 170949Z 27007KT 05/03 A30 RMK A01 T00480029  RH  088%=      5-min Rain = 0
KCO1 170950Z 27006KT 05/03 A3001 RMK A01 T00480029  RH  088%=      5-min Rain = 0
KCO1 170951Z 27006KT 05/03 A3001 RMK A01 T00490030  RH  088%=      5-min Rain = 0
KCO1 170952Z 28006KT 05/03 A3001 RMK A01 T00500032  RH  088%=      5-min Rain = 0
KCO1 170953Z 28006KT 05/03 A3001 RMK A01 T00520034  RH  088%=      5-min Rain = 0
KCO1 170954Z 28006KT 05/04 A3001 RMK A01 T00530036  RH  088%=      5-min Rain = 0
KCO1 170955Z 27006KT 06/04 A3001 RMK A01 T00550036  RH  088%=      5-min Rain = 0
KCO1 170956Z 27006KT 06/04 A3001 RMK A01 T00550036  RH  087%=      5-min Rain = 0
KCO1 170957Z 27006KT 06/04 A3001 RMK A01 T00560036  RH  087%=      5-min Rain = 0
KCO1 170958Z 27005KT 06/04 A3001 RMK A01 T00560036  RH  087%=      5-min Rain = 0
KCO1 170959Z 27005KT 06/04 A3001 RMK A01 T00570036  RH  087%=      5-min Rain = 0
KCO1 171000Z 27005KT 06/04 A3001 RMK A01 T00570036  RH  086%=      5-min Rain = 0
KCO1 171001Z 26005KT 06/04 A3001 RMK A01 T00570036  RH  086%=      5-min Rain = 0
KCO1 171002Z 26005KT 06/04 A30 RMK A01 T00570036  RH  086%=      5-min Rain = 0
KCO1 171003Z 25004KT 06/04 A30 RMK A01 T00570036  RH  086%=      5-min Rain = 0
KCO1 171004Z 25004KT 06/04 A30 RMK A01 T00570036  RH  086%=      5-min Rain = 0
KCO1 171005Z 25004KT 06/04 A30 RMK A01 T00580037  RH  086%=      5-min Rain = 0
KCO1 171006Z 25005KT 06/04 A30 RMK A01 T00570036  RH  086%=      5-min Rain = 0
KCO1 171007Z 25005KT 06/04 A30 RMK A01 T00570036  RH  086%=      5-min Rain = 0
KCO1 171008Z 24006KT 06/04 A30 RMK A01 T00570036  RH  087%=      5-min Rain = 0
KCO1 171009Z 24006KT 06/04 A30 RMK A01 T00570036  RH  087%=      5-min Rain = 0
KCO1 171010Z 25006KT 06/04 A30 RMK A01 T00570037  RH  087%=      5-min Rain = 0
KCO1 171011Z 25005KT 06/04 A3001 RMK A01 T00570037  RH  087%=      5-min Rain = 0
KCO1 171012Z 26004KT 06/04 A3001 RMK A01 T00570037  RH  087%=      5-min Rain = 0
KCO1 171013Z 29003KT 06/04 A3001 RMK A01 T00570037  RH  087%=      5-min Rain = 0
KCO1 171014Z 28004KT 06/04 A3001 RMK A01 T00570038  RH  087%=      5-min Rain = 0
KCO1 171015Z 27004KT 06/04 A3001 RMK A01 T00580038  RH  087%=      5-min Rain = 0
KCO1 171016Z 27004KT 06/04 A3001 RMK A01 T00570037  RH  087%=      5-min Rain = 0
KCO1 171017Z 28005KT 06/04 A3001 RMK A01 T00570037  RH  087%=      5-min Rain = 0
KCO1 171018Z 28005KT 06/04 A3001 RMK A01 T00560036  RH  087%=      5-min Rain = 0
KCO1 171019Z 28005KT 06/04 A3001 RMK A01 T00560036  RH  087%=      5-min Rain = 0
KCO1 171020Z 28004KT 06/04 A3001 RMK A01 T00550035  RH  087%=      5-min Rain = 0
KCO1 171021Z 27005KT 05/04 A3001 RMK A01 T00540035  RH  087%=      5-min Rain = 0
KCO1 171022Z 27005KT 05/04 A3001 RMK A01 T00540035  RH  088%=      5-min Rain = 0
KCO1 171023Z 26004KT 05/04 A3001 RMK A01 T00540035  RH  088%=      5-min Rain = 0
KCO1 171024Z 26004KT 05/04 A3001 RMK A01 T00530035  RH  088%=      5-min Rain = 0
KCO1 171025Z 25004KT 05/04 A3001 RMK A01 T00530035  RH  088%=      5-min Rain = 0
KCO1 171026Z 25003KT 05/04 A3001 RMK A01 T00530035  RH  088%=      5-min Rain = 0
KCO1 171027Z 25003KT 05/04 A3001 RMK A01 T00530035  RH  088%=      5-min Rain = 0
KCO1 171028Z 25004KT 05/03 A3001 RMK A01 T00530034  RH  088%=      5-min Rain = 0
KCO1 171029Z 25004KT 05/03 A3001 RMK A01 T00520034  RH  088%=      5-min Rain = 0
KCO1 171030Z 25004KT 05/03 A3001 RMK A01 T00530034  RH  088%=      5-min Rain = 0
KCO1 171031Z 25005KT 05/03 A3001 RMK A01 T00530034  RH  088%=      5-min Rain = 0
KCO1 171032Z 24005KT 05/03 A3001 RMK A01 T00530034  RH  087%=      5-min Rain = 0
KCO1 171033Z 24005KT 05/03 A3001 RMK A01 T00530033  RH  087%=      5-min Rain = 0
KCO1 171034Z 24005KT 05/03 A3001 RMK A01 T00530033  RH  087%=      5-min Rain = 0
KCO1 171035Z 23005KT 05/03 A3001 RMK A01 T00530033  RH  087%=      5-min Rain = 0
KCO1 171036Z 23005KT 05/03 A3001 RMK A01 T00530033  RH  087%=      5-min Rain = 0
KCO1 171037Z 24005KT 05/03 A3001 RMK A01 T00530033  RH  087%=      5-min Rain = 0
KCO1 171038Z 24005KT 05/03 A3002 RMK A01 T00530032  RH  086%=      5-min Rain = 0
KCO1 171039Z 24005KT 05/03 A3002 RMK A01 T00530032  RH  086%=      5-min Rain = 0
KCO1 171040Z 25005KT 05/03 A3002 RMK A01 T00530032  RH  086%=      5-min Rain = 0
KCO1 171041Z 25005KT 05/03 A3002 RMK A01 T00530032  RH  086%=      5-min Rain = 0
KCO1 171042Z 25006KT 05/03 A3002 RMK A01 T00530032  RH  086%=      5-min Rain = 0
KCO1 171043Z 25006KT 05/03 A3002 RMK A01 T00540032  RH  086%=      5-min Rain = 0
KCO1 171044Z 24006KT 06/03 A3002 RMK A01 T00550033  RH  086%=      5-min Rain = 0
KCO1 171045Z 24007KT 06/03 A3002 RMK A01 T00550033  RH  086%=      5-min Rain = 0
KCO1 171046Z 24007KT 06/03 A3002 RMK A01 T00560033  RH  085%=      5-min Rain = 0
KCO1 171047Z 24007KT 06/03 A3002 RMK A01 T00570033  RH  085%=      5-min Rain = 0
KCO1 171048Z 25007KT 06/03 A3002 RMK A01 T00580033  RH  084%=      5-min Rain = 0
KCO1 171049Z 25007KT 06/03 A3003 RMK A01 T00590033  RH  084%=      5-min Rain = 0
KCO1 171050Z 25006KT 06/03 A3003 RMK A01 T00600034  RH  083%=      5-min Rain = 0
KCO1 171051Z 25006KT 06/03 A3003 RMK A01 T00610034  RH  083%=      5-min Rain = 0
KCO1 171052Z 25006KT 06/03 A3003 RMK A01 T00630034  RH  082%=      5-min Rain = 0
KCO1 171053Z 25006KT 06/03 A3003 RMK A01 T00640034  RH  082%=      5-min Rain = 0
KCO1 171054Z 24005KT 06/03 A3003 RMK A01 T00640034  RH  081%=      5-min Rain = 0
KCO1 171055Z 23005KT 06/03 A3003 RMK A01 T00640033  RH  080%=      5-min Rain = 0
KCO1 171056Z 23003KT 06/03 A3003 RMK A01 T00620031  RH  080%=      5-min Rain = 0
KCO1 171057Z 24003KT 06/03 A3003 RMK A01 T00600029  RH  080%=      5-min Rain = 0
KCO1 171058Z 22003KT 06/03 A3002 RMK A01 T00590028  RH  081%=      5-min Rain = 0
KCO1 171059Z 21004KT 06/03 A3002 RMK A01 T00570028  RH  082%=      5-min Rain = 0
KCO1 171100Z 22004KT 06/03 A3002 RMK A01 T00560028  RH  082%=      5-min Rain = 0
KCO1 171101Z 23004KT 06/03 A3002 RMK A01 T00560029  RH  083%=      5-min Rain = 0
KCO1 171102Z 23004KT 06/03 A3002 RMK A01 T00550029  RH  083%=      5-min Rain = 0
KCO1 171103Z 24004KT 06/03 A3002 RMK A01 T00560030  RH  084%=      5-min Rain = 0
KCO1 171104Z 26004KT 06/03 A3002 RMK A01 T00560030  RH  084%=      5-min Rain = 0
KCO1 171105Z 27004KT 06/03 A3003 RMK A01 T00560031  RH  084%=      5-min Rain = 0
KCO1 171106Z 29005KT 06/03 A3003 RMK A01 T00570031  RH  083%=      5-min Rain = 0
KCO1 171107Z 27005KT 06/03 A3003 RMK A01 T00570031  RH  083%=      5-min Rain = 0
KCO1 171108Z 29005KT 06/03 A3003 RMK A01 T00580031  RH  083%=      5-min Rain = 0
KCO1 171109Z 31007KT 06/03 A3003 RMK A01 T00590032  RH  083%=      5-min Rain = 0
KCO1 171110Z 30005KT 06/03 A3003 RMK A01 T00600032  RH  082%=      5-min Rain = 0
KCO1 171111Z 31007KT 06/03 A3003 RMK A01 T00600031  RH  082%=      5-min Rain = 0
KCO1 171112Z 30005KT 06/03 A3003 RMK A01 T00600031  RH  081%=      5-min Rain = 0
KCO1 171113Z 32006KT 06/03 A3003 RMK A01 T00600030  RH  081%=      5-min Rain = 0
KCO1 171114Z 32006KT 06/03 A3003 RMK A01 T00600030  RH  081%=      5-min Rain = 0
KCO1 171115Z 32005KT 06/03 A3003 RMK A01 T00600030  RH  081%=      5-min Rain = 0
KCO1 171116Z 33006KT 06/03 A3003 RMK A01 T00600030  RH  081%=      5-min Rain = 0
KCO1 171117Z 33005KT 06/03 A3003 RMK A01 T00590029  RH  081%=      5-min Rain = 0
KCO1 171118Z 34006KT 06/03 A3003 RMK A01 T00580028  RH  081%=      5-min Rain = 0
KCO1 171119Z 32005KT 06/03 A3003 RMK A01 T00560026  RH  081%=      5-min Rain = 0
KCO1 171120Z 31005KT 05/03 A3003 RMK A01 T00540026  RH  082%=      5-min Rain = 0
KCO1 171121Z 32007KT 05/03 A3003 RMK A01 T00540026  RH  082%=      5-min Rain = 0
KCO1 171122Z 33008KT 05/03 A3003 RMK A01 T00530026  RH  083%=      5-min Rain = 0
KCO1 171123Z 33007KT 05/03 A3003 RMK A01 T00530025  RH  083%=      5-min Rain = 0
KCO1 171124Z 34006KT 05/02 A3003 RMK A01 T00520024  RH  082%=      5-min Rain = 0
KCO1 171125Z 33006KT 05/02 A3003 RMK A01 T00500022  RH  082%=      5-min Rain = 0
KCO1 171126Z 32007KT 05/02 A3003 RMK A01 T00490021  RH  082%=      5-min Rain = 0
KCO1 171127Z 31007KT 05/02 A3003 RMK A01 T00470021  RH  083%=      5-min Rain = 0
KCO1 171128Z 31007KT 05/02 A3003 RMK A01 T00470022  RH  084%=      5-min Rain = 0
KCO1 171129Z 32007KT 05/02 A3003 RMK A01 T00480024  RH  084%=      5-min Rain = 0
KCO1 171130Z 32007KT 05/03 A3003 RMK A01 T00510027  RH  085%=      5-min Rain = 0
KCO1 171131Z 32008KT 05/03 A3003 RMK A01 T00530029  RH  084%=      5-min Rain = 0
KCO1 171132Z 33007KT 06/03 A3003 RMK A01 T00560030  RH  084%=      5-min Rain = 0
KCO1 171133Z 33009KT 06/03 A3004 RMK A01 T00570030  RH  083%=      5-min Rain = 0
KCO1 171134Z 33009KT 06/03 A3004 RMK A01 T00570030  RH  083%=      5-min Rain = 0
KCO1 171135Z 32008KT 06/03 A3003 RMK A01 T00570030  RH  082%=      5-min Rain = 0
KCO1 171136Z 31008KT 06/03 A3003 RMK A01 T00570029  RH  083%=      5-min Rain = 0
KCO1 171137Z 31008KT 06/03 A3003 RMK A01 T00560029  RH  083%=      5-min Rain = 0
KCO1 171138Z 32007KT 06/03 A3003 RMK A01 T00550029  RH  083%=      5-min Rain = 0
KCO1 171139Z 33007KT 06/03 A3003 RMK A01 T00550029  RH  083%=      5-min Rain = 0
KCO1 171140Z 33008KT 06/03 A3003 RMK A01 T00550030  RH  084%=      5-min Rain = 0
KCO1 171141Z 32009KT 06/03 A3003 RMK A01 T00550030  RH  083%=      5-min Rain = 0
KCO1 171142Z 31008KT 06/03 A3003 RMK A01 T00550029  RH  083%=      5-min Rain = 0
KCO1 171143Z 31007KT 05/03 A3003 RMK A01 T00540029  RH  084%=      5-min Rain = 0
KCO1 171144Z 30007KT 05/03 A3003 RMK A01 T00540029  RH  084%=      5-min Rain = 0
KCO1 171145Z 30008KT 05/03 A3003 RMK A01 T00540029  RH  084%=      5-min Rain = 0
KCO1 171146Z 29008KT 05/03 A3003 RMK A01 T00540030  RH  084%=      5-min Rain = 0
KCO1 171147Z 29009KT 05/03 A3003 RMK A01 T00540030  RH  085%=      5-min Rain = 0
KCO1 171148Z 29008KT 06/03 A3003 RMK A01 T00550031  RH  085%=      5-min Rain = 0
KCO1 171149Z 29008KT 06/03 A3004 RMK A01 T00550031  RH  084%=      5-min Rain = 0
KCO1 171150Z 30007KT 06/03 A3004 RMK A01 T00550031  RH  084%=      5-min Rain = 0
KCO1 171151Z 29007KT 06/03 A3004 RMK A01 T00550030  RH  084%=      5-min Rain = 0
KCO1 171152Z 29007KT 06/03 A3004 RMK A01 T00560031  RH  084%=      5-min Rain = 0
KCO1 171153Z 29008KT 06/03 A3004 RMK A01 T00560031  RH  084%=      5-min Rain = 0
KCO1 171154Z 29008KT 06/03 A3004 RMK A01 T00560031  RH  084%=      5-min Rain = 0
KCO1 171155Z 29007KT 06/03 A3004 RMK A01 T00550031  RH  084%=      5-min Rain = 0
KCO1 171156Z 30007KT 06/03 A3004 RMK A01 T00550030  RH  084%=      5-min Rain = 0
KCO1 171157Z 29008KT 05/03 A3004 RMK A01 T00540030  RH  084%=      5-min Rain = 0
KCO1 171158Z 30008KT 05/03 A3004 RMK A01 T00540030  RH  084%=      5-min Rain = 0
KCO1 171159Z 30008KT 05/03 A3004 RMK A01 T00540030  RH  085%=      5-min Rain = 0
KCO1 171200Z 31007KT 05/03 A3005 RMK A01 T00540030  RH  085%=      5-min Rain = 0
KCO1 171201Z 31007KT 05/03 A3005 RMK A01 T00540030  RH  085%=      5-min Rain = 0
KCO1 171202Z 30007KT 05/03 A3005 RMK A01 T00540030  RH  085%=      5-min Rain = 0
KCO1 171203Z 31007KT 05/03 A3005 RMK A01 T00530030  RH  085%=      5-min Rain = 0
KCO1 171204Z 31006KT 05/03 A3005 RMK A01 T00530029  RH  085%=      5-min Rain = 0
KCO1 171205Z 30007KT 05/03 A3005 RMK A01 T00520029  RH  085%=      5-min Rain = 0
KCO1 171206Z 29007KT 05/03 A3005 RMK A01 T00520029  RH  085%=      5-min Rain = 0
KCO1 171207Z 29006KT 05/03 A3005 RMK A01 T00510028  RH  085%=      5-min Rain = 0
KCO1 171208Z 29007KT 05/03 A3005 RMK A01 T00500028  RH  085%=      5-min Rain = 0
KCO1 171209Z 30007KT 05/03 A3005 RMK A01 T00500028  RH  086%=      5-min Rain = 0
KCO1 171210Z 30007KT 05/03 A3005 RMK A01 T00500028  RH  086%=      5-min Rain = 0
KCO1 171211Z 30006KT 05/03 A3005 RMK A01 T00500028  RH  086%=      5-min Rain = 0
KCO1 171212Z 30007KT 05/03 A3005 RMK A01 T00490028  RH  086%=      5-min Rain = 0
KCO1 171213Z 30007KT 05/03 A3005 RMK A01 T00490028  RH  086%=      5-min Rain = 0
KCO1 171214Z 30007KT 05/03 A3005 RMK A01 T00490029  RH  086%=      5-min Rain = 0
KCO1 171215Z 30007KT 05/03 A3005 RMK A01 T00490029  RH  086%=      5-min Rain = 0
KCO1 171216Z 30007KT 05/03 A3005 RMK A01 T00490028  RH  086%=      5-min Rain = 0
KCO1 171217Z 29007KT 05/03 A3005 RMK A01 T00490028  RH  087%=      5-min Rain = 0
KCO1 171218Z 28007KT 05/03 A3005 RMK A01 T00490028  RH  087%=      5-min Rain = 0
KCO1 171219Z 29007KT 05/03 A3005 RMK A01 T00480028  RH  087%=      5-min Rain = 0
KCO1 171220Z 29006KT 05/03 A3005 RMK A01 T00480029  RH  087%=      5-min Rain = 0
KCO1 171221Z 29007KT 05/03 A3006 RMK A01 T00480029  RH  087%=      5-min Rain = 0
KCO1 171222Z 29006KT 05/03 A3006 RMK A01 T00490029  RH  087%=      5-min Rain = 0
KCO1 171223Z 29006KT 05/03 A3006 RMK A01 T00490029  RH  087%=      5-min Rain = 0
KCO1 171224Z 29007KT 05/03 A3006 RMK A01 T00490030  RH  087%=      5-min Rain = 0
KCO1 171225Z 29007KT 05/03 A3006 RMK A01 T00510031  RH  087%=      5-min Rain = 0
KCO1 171226Z 30007KT 05/03 A3006 RMK A01 T00520032  RH  087%=      5-min Rain = 0
KCO1 171227Z 30007KT 05/03 A3006 RMK A01 T00530032  RH  086%=      5-min Rain = 0
KCO1 171228Z 29007KT 05/03 A3006 RMK A01 T00540031  RH  085%=      5-min Rain = 0
KCO1 171229Z 30007KT 06/03 A3007 RMK A01 T00560032  RH  085%=      5-min Rain = 0
KCO1 171230Z 29008KT 06/03 A3007 RMK A01 T00570032  RH  084%=      5-min Rain = 0
KCO1 171231Z 30009KT 06/03 A3007 RMK A01 T00590032  RH  083%=      5-min Rain = 0
KCO1 171232Z 30008KT 06/03 A3007 RMK A01 T00620032  RH  081%=      5-min Rain = 0
KCO1 171233Z 30007KT 06/03 A3007 RMK A01 T00640032  RH  080%=      5-min Rain = 0
KCO1 171234Z 30007KT 07/03 A3007 RMK A01 T00650031  RH  079%=      5-min Rain = 0
KCO1 171235Z 30008KT 07/03 A3007 RMK A01 T00660030  RH  078%=      5-min Rain = 0
KCO1 171236Z 30007KT 07/03 A3007 RMK A01 T00670030  RH  078%=      5-min Rain = 0
KCO1 171237Z 30007KT 07/03 A3008 RMK A01 T00670030  RH  077%=      5-min Rain = 0
KCO1 171238Z 30006KT 07/03 A3008 RMK A01 T00680030  RH  077%=      5-min Rain = 0
KCO1 171239Z 30006KT 07/03 A3008 RMK A01 T00670029  RH  077%=      5-min Rain = 0
KCO1 171240Z 30008KT 07/03 A3008 RMK A01 T00670029  RH  077%=      5-min Rain = 0
KCO1 171241Z 30006KT 07/03 A3008 RMK A01 T00670029  RH  077%=      5-min Rain = 0
KCO1 171242Z 30006KT 07/03 A3008 RMK A01 T00670029  RH  077%=      5-min Rain = 0
KCO1 171243Z 30007KT 07/03 A3008 RMK A01 T00660028  RH  077%=      5-min Rain = 0
KCO1 171244Z 31007KT 07/03 A3009 RMK A01 T00670029  RH  076%=      5-min Rain = 0
KCO1 171245Z 31007KT 07/03 A3009 RMK A01 T00680029  RH  076%=      5-min Rain = 0
KCO1 171246Z 30006KT 07/03 A3008 RMK A01 T00670028  RH  076%=      5-min Rain = 0
KCO1 171247Z 31006KT 07/03 A3009 RMK A01 T00680028  RH  076%=      5-min Rain = 0
KCO1 171248Z 32007KT 07/03 A3009 RMK A01 T00680027  RH  075%=      5-min Rain = 0
KCO1 171249Z 32007KT 07/03 A3009 RMK A01 T00690027  RH  075%=      5-min Rain = 0
KCO1 171250Z 31008KT 07/03 A3009 RMK A01 T00700027  RH  074%=      5-min Rain = 0
KCO1 171251Z 32007KT 07/03 A3009 RMK A01 T00700027  RH  074%=      5-min Rain = 0
KCO1 171252Z 32008KT 07/03 A3009 RMK A01 T00710026  RH  073%=      5-min Rain = 0
KCO1 171253Z 33008KT 07/03 A3009 RMK A01 T00720026  RH  072%=      5-min Rain = 0
KCO1 171254Z 33009KT 07/03 A3009 RMK A01 T00730025  RH  072%=      5-min Rain = 0
KCO1 171255Z 33009KT 07/03 A3009 RMK A01 T00740025  RH  071%=      5-min Rain = 0
KCO1 171256Z 33008KT 08/02 A3009 RMK A01 T00750024  RH  070%=      5-min Rain = 0
KCO1 171257Z 34008KT 08/02 A3009 RMK A01 T00760024  RH  069%=      5-min Rain = 0
KCO1 171258Z 34008KT 08/02 A3009 RMK A01 T00770023  RH  068%=      5-min Rain = 0
KCO1 171259Z 34008KT 08/02 A3009 RMK A01 T00780023  RH  068%=      5-min Rain = 0
KCO1 171300Z 34008KT 08/02 A301 RMK A01 T00780022  RH  068%=      5-min Rain = 0
KCO1 171301Z 33008KT 08/02 A301 RMK A01 T00780022  RH  068%=      5-min Rain = 0
KCO1 171302Z 33008KT 08/02 A301 RMK A01 T00780022  RH  067%=      5-min Rain = 0
KCO1 171303Z 33008KT 08/02 A301 RMK A01 T00790021  RH  067%=      5-min Rain = 0
KCO1 171304Z 33007KT 08/02 A301 RMK A01 T00790021  RH  067%=      5-min Rain = 0
KCO1 171305Z 33007KT 08/02 A301 RMK A01 T00790021  RH  067%=      5-min Rain = 0
KCO1 171306Z 33007KT 08/02 A301 RMK A01 T00790021  RH  067%=      5-min Rain = 0
KCO1 171307Z 33007KT 08/02 A301 RMK A01 T00790021  RH  066%=      5-min Rain = 0
KCO1 171308Z 33006KT 08/02 A301 RMK A01 T00800021  RH  066%=      5-min Rain = 0
KCO1 171309Z 33006KT 08/02 A301 RMK A01 T00790021  RH  066%=      5-min Rain = 0
KCO1 171310Z 33006KT 08/02 A3011 RMK A01 T00790020  RH  066%=      5-min Rain = 0
KCO1 171311Z 33007KT 08/02 A3011 RMK A01 T00790020  RH  066%=      5-min Rain = 0
KCO1 171312Z 33006KT 08/02 A3011 RMK A01 T00790020  RH  066%=      5-min Rain = 0
KCO1 171313Z 32006KT 08/02 A3011 RMK A01 T00790020  RH  066%=      5-min Rain = 0
KCO1 171314Z 32006KT 08/02 A3011 RMK A01 T00790020  RH  066%=      5-min Rain = 0
KCO1 171315Z 32006KT 08/02 A3012 RMK A01 T00790021  RH  067%=      5-min Rain = 0
KCO1 171316Z 32006KT 08/02 A3012 RMK A01 T00770020  RH  067%=      5-min Rain = 0
KCO1 171317Z 32006KT 08/02 A3012 RMK A01 T00770020  RH  067%=      5-min Rain = 0
KCO1 171318Z 31006KT 08/02 A3012 RMK A01 T00760020  RH  067%=      5-min Rain = 0
KCO1 171319Z 31007KT 08/02 A3012 RMK A01 T00750020  RH  068%=      5-min Rain = 0
KCO1 171320Z 31007KT 08/02 A3012 RMK A01 T00750020  RH  068%=      5-min Rain = 0
KCO1 171321Z 30006KT 07/02 A3012 RMK A01 T00740020  RH  068%=      5-min Rain = 0
KCO1 171322Z 30007KT 07/02 A3012 RMK A01 T00740020  RH  069%=      5-min Rain = 0
KCO1 171323Z 30008KT 07/02 A3012 RMK A01 T00730019  RH  069%=      5-min Rain = 0
KCO1 171324Z 31008KT 07/02 A3012 RMK A01 T00730019  RH  068%=      5-min Rain = 0
KCO1 171325Z 31007KT 07/02 A3013 RMK A01 T00740019  RH  068%=      5-min Rain = 0
KCO1 171326Z 31007KT 07/02 A3013 RMK A01 T00740019  RH  068%=      5-min Rain = 0
KCO1 171327Z 31009KT 08/02 A3013 RMK A01 T00760018  RH  067%=      5-min Rain = 0
KCO1 171328Z 31008KT 08/02 A3013 RMK A01 T00770018  RH  067%=      5-min Rain = 0
KCO1 171329Z 31008KT 08/02 A3013 RMK A01 T00770018  RH  066%=      5-min Rain = 0
KCO1 171330Z 31007KT 08/02 A3013 RMK A01 T00780018  RH  066%=      5-min Rain = 0
KCO1 171331Z 31008KT 08/02 A3013 RMK A01 T00780019  RH  066%=      5-min Rain = 0
KCO1 171332Z 31008KT 08/02 A3013 RMK A01 T00780018  RH  066%=      5-min Rain = 0
KCO1 171333Z 31008KT 08/02 A3013 RMK A01 T00780018  RH  066%=      5-min Rain = 0
KCO1 171334Z 31008KT 08/02 A3013 RMK A01 T00780018  RH  066%=      5-min Rain = 0
KCO1 171335Z 31008KT 08/02 A3013 RMK A01 T00770018  RH  066%=      5-min Rain = 0
KCO1 171336Z 30009KT 08/02 A3013 RMK A01 T00760018  RH  066%=      5-min Rain = 0
KCO1 171337Z 30008KT 08/02 A3013 RMK A01 T00760018  RH  067%=      5-min Rain = 0
KCO1 171338Z 30008KT 08/02 A3014 RMK A01 T00760018  RH  067%=      5-min Rain = 0
KCO1 171339Z 30008KT 08/02 A3014 RMK A01 T00760018  RH  067%=      5-min Rain = 0
KCO1 171340Z 31008KT 08/02 A3014 RMK A01 T00760018  RH  067%=      5-min Rain = 0
KCO1 171341Z 30009KT 08/02 A3014 RMK A01 T00770018  RH  066%=      5-min Rain = 0
KCO1 171342Z 30008KT 08/02 A3014 RMK A01 T00780018  RH  066%=      5-min Rain = 0
KCO1 171343Z 30007KT 08/02 A3014 RMK A01 T00780018  RH  066%=      5-min Rain = 0
KCO1 171344Z 30007KT 08/02 A3014 RMK A01 T00780018  RH  066%=      5-min Rain = 0
KCO1 171345Z 30008KT 08/02 A3014 RMK A01 T00790018  RH  065%=      5-min Rain = 0
KCO1 171346Z 30008KT 08/02 A3014 RMK A01 T00790018  RH  065%=      5-min Rain = 0
KCO1 171347Z 30008KT 08/02 A3014 RMK A01 T00790017  RH  065%=      5-min Rain = 0
KCO1 171348Z 30007KT 08/02 A3014 RMK A01 T00800018  RH  065%=      5-min Rain = 0
KCO1 171349Z 30007KT 08/02 A3015 RMK A01 T00800018  RH  065%=      5-min Rain = 0
KCO1 171350Z 30007KT 08/02 A3015 RMK A01 T00800017  RH  065%=      5-min Rain = 0
KCO1 171351Z 30008KT 08/02 A3015 RMK A01 T00800017  RH  065%=      5-min Rain = 0
KCO1 171352Z 30008KT 08/02 A3015 RMK A01 T00800017  RH  064%=      5-min Rain = 0
KCO1 171353Z 30007KT 08/02 A3015 RMK A01 T00810017  RH  064%=      5-min Rain = 0
KCO1 171354Z 30008KT 08/02 A3015 RMK A01 T00820017  RH  064%=      5-min Rain = 0
KCO1 171355Z 30007KT 08/02 A3015 RMK A01 T00820016  RH  063%=      5-min Rain = 0
KCO1 171356Z 30009KT 08/02 A3015 RMK A01 T00820017  RH  063%=      5-min Rain = 0
KCO1 171357Z 30008KT 08/02 A3015 RMK A01 T00820017  RH  063%=      5-min Rain = 0
KCO1 171358Z 30008KT 08/02 A3015 RMK A01 T00820016  RH  063%=      5-min Rain = 0
KCO1 171359Z 30008KT 08/02 A3015 RMK A01 T00820016  RH  063%=      5-min Rain = 0
KCO1 171400Z 30008KT 08/02 A3015 RMK A01 T00830016  RH  063%=      5-min Rain = 0
KCO1 171401Z 30008KT 08/02 A3015 RMK A01 T00830016  RH  063%=      5-min Rain = 0
KCO1 171402Z 30008KT 08/02 A3016 RMK A01 T00830016  RH  063%=      5-min Rain = 0
KCO1 171403Z 30008KT 08/02 A3016 RMK A01 T00830015  RH  062%=      5-min Rain = 0
KCO1 171404Z 30007KT 08/02 A3016 RMK A01 T00840015  RH  062%=      5-min Rain = 0
KCO1 171405Z 30007KT 09/02 A3016 RMK A01 T00860015  RH  061%=      5-min Rain = 0
KCO1 171406Z 29006KT 09/02 A3016 RMK A01 T00860016  RH  061%=      5-min Rain = 0
KCO1 171407Z 29007KT 09/02 A3016 RMK A01 T00860016  RH  061%=      5-min Rain = 0
KCO1 171408Z 29006KT 09/02 A3016 RMK A01 T00870016  RH  061%=      5-min Rain = 0
KCO1 171409Z 29007KT 09/02 A3016 RMK A01 T00870016  RH  061%=      5-min Rain = 0
KCO1 171410Z 29005KT 09/02 A3017 RMK A01 T00870017  RH  061%=      5-min Rain = 0
KCO1 171411Z 28006KT 09/02 A3017 RMK A01 T00870018  RH  062%=      5-min Rain = 0
KCO1 171412Z 28006KT 09/02 A3017 RMK A01 T00870018  RH  062%=      5-min Rain = 0
KCO1 171413Z 28007KT 09/02 A3017 RMK A01 T00870019  RH  062%=      5-min Rain = 0
KCO1 171414Z 28006KT 09/02 A3017 RMK A01 T00860019  RH  063%=      5-min Rain = 0
KCO1 171415Z 28007KT 09/02 A3017 RMK A01 T00860019  RH  063%=      5-min Rain = 0
KCO1 171416Z 28008KT 09/02 A3017 RMK A01 T00850019  RH  063%=      5-min Rain = 0
KCO1 171417Z 28007KT 09/02 A3017 RMK A01 T00850019  RH  063%=      5-min Rain = 0
KCO1 171418Z 28008KT 09/02 A3018 RMK A01 T00860019  RH  063%=      5-min Rain = 0
KCO1 171419Z 28007KT 09/02 A3018 RMK A01 T00860018  RH  062%=      5-min Rain = 0
KCO1 171420Z 29007KT 09/02 A3018 RMK A01 T00860018  RH  062%=      5-min Rain = 0
KCO1 171421Z 28007KT 09/02 A3018 RMK A01 T00870018  RH  062%=      5-min Rain = 0
KCO1 171422Z 28007KT 09/02 A3018 RMK A01 T00870018  RH  062%=      5-min Rain = 0
KCO1 171423Z 28007KT 09/02 A3018 RMK A01 T00870019  RH  062%=      5-min Rain = 0
KCO1 171424Z 28007KT 09/02 A3018 RMK A01 T00870019  RH  062%=      5-min Rain = 0
KCO1 171425Z 28007KT 09/02 A3018 RMK A01 T00870019  RH  062%=      5-min Rain = 0
KCO1 171426Z 28007KT 09/02 A3018 RMK A01 T00870019  RH  062%=      5-min Rain = 0
KCO1 171427Z 28006KT 09/02 A3018 RMK A01 T00870020  RH  063%=      5-min Rain = 0
KCO1 171428Z 28007KT 09/02 A3018 RMK A01 T00870021  RH  063%=      5-min Rain = 0
KCO1 171429Z 28007KT 09/02 A3018 RMK A01 T00870020  RH  063%=      5-min Rain = 0
KCO1 171430Z 28007KT 09/02 A3018 RMK A01 T00880021  RH  063%=      5-min Rain = 0
KCO1 171431Z 28007KT 09/02 A3019 RMK A01 T00880021  RH  063%=      5-min Rain = 0
KCO1 171432Z 28009KT 09/02 A3019 RMK A01 T00890022  RH  063%=      5-min Rain = 0
KCO1 171433Z 28009KT 09/02 A3018 RMK A01 T00890021  RH  062%=      5-min Rain = 0
KCO1 171434Z 27009KT 09/02 A3018 RMK A01 T00900020  RH  062%=      5-min Rain = 0
KCO1 171435Z 27008KT 09/02 A3019 RMK A01 T00910020  RH  061%=      5-min Rain = 0
KCO1 171436Z 27008KT 09/02 A3019 RMK A01 T00910021  RH  061%=      5-min Rain = 0
KCO1 171437Z 27007KT 09/02 A3019 RMK A01 T00930021  RH  061%=      5-min Rain = 0
KCO1 171438Z 27007KT 09/02 A3019 RMK A01 T00930020  RH  060%=      5-min Rain = 0
KCO1 171439Z 27007KT 09/02 A3019 RMK A01 T00940020  RH  060%=      5-min Rain = 0
KCO1 171440Z 28007KT 10/02 A3019 RMK A01 T00950019  RH  059%=      5-min Rain = 0
KCO1 171441Z 28007KT 10/02 A3019 RMK A01 T00960019  RH  059%=      5-min Rain = 0
KCO1 171442Z 29008KT 10/02 A3019 RMK A01 T00960019  RH  059%=      5-min Rain = 0
KCO1 171443Z 28009KT 10/02 A3019 RMK A01 T00960019  RH  058%=      5-min Rain = 0
KCO1 171444Z 28008KT 10/02 A3019 RMK A01 T00960019  RH  059%=      5-min Rain = 0
KCO1 171445Z 28009KT 10/02 A3019 RMK A01 T00960019  RH  059%=      5-min Rain = 0
KCO1 171446Z 29008KT 10/02 A3019 RMK A01 T00970020  RH  059%=      5-min Rain = 0
KCO1 171447Z 29008KT 10/02 A3019 RMK A01 T00970020  RH  059%=      5-min Rain = 0
KCO1 171448Z 29010KT 10/02 A3019 RMK A01 T00980019  RH  058%=      5-min Rain = 0
KCO1 171449Z 28009KT 10/02 A3019 RMK A01 T00980018  RH  057%=      5-min Rain = 0
KCO1 171450Z 29008KT 10/02 A3019 RMK A01 T00990018  RH  057%=      5-min Rain = 0
KCO1 171451Z 29008KT 10/02 A3019 RMK A01 T01000018  RH  057%=      5-min Rain = 0
KCO1 171452Z 29009KT 10/02 A3019 RMK A01 T01010018  RH  056%=      5-min Rain = 0
KCO1 171453Z 29009KT 10/02 A3019 RMK A01 T01020016  RH  055%=      5-min Rain = 0
KCO1 171454Z 29008KT 10/02 A3019 RMK A01 T01020016  RH  055%=      5-min Rain = 0
KCO1 171455Z 28008KT 10/02 A3019 RMK A01 T01030016  RH  055%=      5-min Rain = 0
KCO1 171456Z 29008KT 10/02 A302 RMK A01 T01030017  RH  055%=      5-min Rain = 0
KCO1 171457Z 29008KT 10/02 A302 RMK A01 T01040017  RH  055%=      5-min Rain = 0
KCO1 171458Z 29008KT 10/02 A302 RMK A01 T01040016  RH  054%=      5-min Rain = 0
KCO1 171459Z 28008KT 11/02 A302 RMK A01 T01050016  RH  054%=      5-min Rain = 0
KCO1 171500Z 28007KT 11/02 A302 RMK A01 T01050018  RH  055%=      5-min Rain = 0
KCO1 171501Z 29007KT 11/02 A302 RMK A01 T01070020  RH  055%=      5-min Rain = 0
KCO1 171502Z 28007KT 11/02 A302 RMK A01 T01070020  RH  055%=      5-min Rain = 0
KCO1 171503Z 28009KT 11/02 A302 RMK A01 T01070018  RH  054%=      5-min Rain = 0
KCO1 171504Z 27010KT 11/02 A302 RMK A01 T01070017  RH  054%=      5-min Rain = 0
KCO1 171505Z 28009KT 11/02 A302 RMK A01 T01070017  RH  054%=      5-min Rain = 0
KCO1 171506Z 28008KT 11/02 A302 RMK A01 T01070018  RH  054%=      5-min Rain = 0
KCO1 171507Z 28009KT 11/02 A302 RMK A01 T01070018  RH  054%=      5-min Rain = 0
KCO1 171508Z 28009KT 11/02 A302 RMK A01 T01080017  RH  054%=      5-min Rain = 0
KCO1 171509Z 29009KT 11/02 A302 RMK A01 T01070018  RH  054%=      5-min Rain = 0
KCO1 171510Z 29007KT 11/02 A302 RMK A01 T01080016  RH  053%=      5-min Rain = 0
KCO1 171511Z 29008KT 11/02 A302 RMK A01 T01080018  RH  054%=      5-min Rain = 0
KCO1 171512Z 29008KT 11/02 A302 RMK A01 T01090017  RH  053%=      5-min Rain = 0
KCO1 171513Z 29009KT 11/02 A302 RMK A01 T01090016  RH  053%=      5-min Rain = 0
KCO1 171514Z 29008KT 11/02 A302 RMK A01 T01100016  RH  052%=      5-min Rain = 0
KCO1 171515Z 29008KT 11/02 A302 RMK A01 T01100016  RH  052%=      5-min Rain = 0
KCO1 171516Z 29008KT 11/02 A302 RMK A01 T01100017  RH  053%=      5-min Rain = 0
KCO1 171517Z 29008KT 11/02 A302 RMK A01 T01110017  RH  052%=      5-min Rain = 0
KCO1 171518Z 29007KT 11/02 A302 RMK A01 T01120018  RH  052%=      5-min Rain = 0
KCO1 171519Z 28008KT 11/02 A302 RMK A01 T01130018  RH  052%=      5-min Rain = 0
KCO1 171520Z 29007KT 11/02 A302 RMK A01 T01130019  RH  052%=      5-min Rain = 0
KCO1 171521Z 29006KT 11/02 A302 RMK A01 T01140020  RH  052%=      5-min Rain = 0
KCO1 171522Z 30007KT 12/02 A302 RMK A01 T01150021  RH  052%=      5-min Rain = 0
KCO1 171523Z 31007KT 12/02 A302 RMK A01 T01170021  RH  052%=      5-min Rain = 0
KCO1 171524Z 32008KT 12/02 A302 RMK A01 T01190016  RH  050%=      5-min Rain = 0
KCO1 171525Z 33011KT 12/01 A302 RMK A01 T01200013  RH  048%=      5-min Rain = 0
KCO1 171526Z 33010KT 12/01 A302 RMK A01 T01220009  RH  046%=      5-min Rain = 0
KCO1 171527Z 33010G15KT 12/01 A302 RMK A01 T01240010  RH  046%=      5-min Rain = 0
KCO1 171528Z 33012KT 13/01 A302 RMK A01 T01250006  RH  044%=      5-min Rain = 0
KCO1 171529Z 33011KT 13/01 A302 RMK A01 T01250005  RH  044%=      5-min Rain = 0
KCO1 171530Z 34012KT 13/01 A302 RMK A01 T01250006  RH  044%=      5-min Rain = 0
KCO1 171531Z 33010KT 13/01 A302 RMK A01 T01250006  RH  044%=      5-min Rain = 0
KCO1 171532Z 33011KT 13/01 A3021 RMK A01 T01260007  RH  044%=      5-min Rain = 0
KCO1 171533Z 33012KT 13/01 A3021 RMK A01 T01270008  RH  044%=      5-min Rain = 0
KCO1 171534Z 33014KT 13/01 A3021 RMK A01 T01270006  RH  043%=      5-min Rain = 0
KCO1 171535Z 32013KT 13/00 A3021 RMK A01 T01270004  RH  043%=      5-min Rain = 0
KCO1 171536Z 33011KT 13/00 A3021 RMK A01 T01270004  RH  043%=      5-min Rain = 0
KCO1 171537Z 32014KT 13/00 A3021 RMK A01 T01270004  RH  043%=      5-min Rain = 0
KCO1 171538Z 34014KT 13/00 A3021 RMK A01 T01270004  RH  043%=      5-min Rain = 0
KCO1 171539Z 34011KT 13/00 A3021 RMK A01 T01280004  RH  043%=      5-min Rain = 0
KCO1 171540Z 35009KT 13/01 A3021 RMK A01 T01280006  RH  043%=      5-min Rain = 0
KCO1 171541Z 33009KT 13/01 A3021 RMK A01 T01280006  RH  043%=      5-min Rain = 0
KCO1 171542Z 33011KT 13/01 A3021 RMK A01 T01290005  RH  042%=      5-min Rain = 0
KCO1 171543Z 33008KT 13/01 A3021 RMK A01 T01290006  RH  043%=      5-min Rain = 0
KCO1 171544Z 33011KT 13/01 A3021 RMK A01 T01310007  RH  043%=      5-min Rain = 0
KCO1 171545Z 34010KT 13/01 A3022 RMK A01 T01310005  RH  042%=      5-min Rain = 0
KCO1 171546Z 34009KT 13/01 A3022 RMK A01 T01320006  RH  042%=      5-min Rain = 0
KCO1 171547Z 33010KT 13/01 A3022 RMK A01 T01320005  RH  042%=      5-min Rain = 0
KCO1 171548Z 33011KT 13/00 A3022 RMK A01 T01320002  RH  041%=      5-min Rain = 0
KCO1 171549Z 34009KT 13/00 A3022 RMK A01 T01320003  RH  041%=      5-min Rain = 0
KCO1 171550Z 34009KT 13/01 A3022 RMK A01 T01320006  RH  042%=      5-min Rain = 0
KCO1 171551Z 34010KT 13/01 A3022 RMK A01 T01330007  RH  042%=      5-min Rain = 0
KCO1 171552Z 34009KT 13/01 A3022 RMK A01 T01340008  RH  042%=      5-min Rain = 0
KCO1 171553Z 33009KT 13/01 A3022 RMK A01 T01340005  RH  041%=      5-min Rain = 0
KCO1 171554Z 32009KT 13/01 A3022 RMK A01 T01340005  RH  041%=      5-min Rain = 0
KCO1 171555Z 33008KT 14/01 A3022 RMK A01 T01350005  RH  041%=      5-min Rain = 0
KCO1 171556Z 33010KT 14/01 A3022 RMK A01 T01350006  RH  041%=      5-min Rain = 0
KCO1 171557Z 33009KT 14/00 A3022 RMK A01 T01350003  RH  040%=      5-min Rain = 0
KCO1 171558Z 33009KT 14/00 A3023 RMK A01 T01350004  RH  041%=      5-min Rain = 0
KCO1 171559Z 32010KT 13/01 A3023 RMK A01 T01340005  RH  041%=      5-min Rain = 0
KCO1 171600Z 32009KT 13/01 A3023 RMK A01 T01340005  RH  041%=      5-min Rain = 0
KCO1 171601Z 32012KT 14/01 A3023 RMK A01 T01350005  RH  041%=      5-min Rain = 0
KCO1 171602Z 33012KT 14/00 A3023 RMK A01 T01350003  RH  040%=      5-min Rain = 0
KCO1 171603Z 33011KT 13/00 A3023 RMK A01 T01340003  RH  041%=      5-min Rain = 0
KCO1 171604Z 33011KT 13/00 A3023 RMK A01 T01340003  RH  041%=      5-min Rain = 0
KCO1 171605Z 32010KT 14/00 A3023 RMK A01 T01350004  RH  041%=      5-min Rain = 0
KCO1 171606Z 33008KT 14/00 A3023 RMK A01 T01350003  RH  040%=      5-min Rain = 0
KCO1 171607Z 33009KT 14/00 A3023 RMK A01 T01360004  RH  040%=      5-min Rain = 0
KCO1 171608Z 33008KT 14/01 A3023 RMK A01 T01370005  RH  041%=      5-min Rain = 0
KCO1 171609Z 34009KT 14/01 A3023 RMK A01 T01380007  RH  041%=      5-min Rain = 0
KCO1 171610Z 33008KT 14/01 A3023 RMK A01 T01400009  RH  041%=      5-min Rain = 0
KCO1 171611Z 35009KT 14/01 A3023 RMK A01 T01400008  RH  040%=      5-min Rain = 0
KCO1 171612Z 34009KT 14/01 A3022 RMK A01 T01400008  RH  040%=      5-min Rain = 0
KCO1 171613Z 34010KT 14/01 A3022 RMK A01 T01400007  RH  040%=      5-min Rain = 0
KCO1 171614Z 34010KT 14/01 A3022 RMK A01 T01390006  RH  040%=      5-min Rain = 0
KCO1 171615Z 33011KT 14/01 A3022 RMK A01 T01390007  RH  041%=      5-min Rain = 0
KCO1 171616Z 33012KT 14/01 A3022 RMK A01 T01390005  RH  040%=      5-min Rain = 0
KCO1 171617Z 33010KT 14/00 A3022 RMK A01 T01380004  RH  040%=      5-min Rain = 0
KCO1 171618Z 33012KT 14/00 A3022 RMK A01 T01380004  RH  040%=      5-min Rain = 0
KCO1 171619Z 34011KT 14/01 A3022 RMK A01 T01380006  RH  040%=      5-min Rain = 0
KCO1 171620Z 33009KT 14/01 A3022 RMK A01 T01390007  RH  040%=      5-min Rain = 0
KCO1 171621Z 32011KT 14/01 A3022 RMK A01 T01400007  RH  040%=      5-min Rain = 0
KCO1 171622Z 33009KT 14/01 A3022 RMK A01 T01400008  RH  040%=      5-min Rain = 0
KCO1 171623Z 33010KT 14/01 A3022 RMK A01 T01410008  RH  040%=      5-min Rain = 0
KCO1 171624Z 33012KT 14/01 A3022 RMK A01 T01400005  RH  040%=      5-min Rain = 0
KCO1 171625Z 33013KT 14/00 A3022 RMK A01 T01380004  RH  040%=      5-min Rain = 0
KCO1 171626Z 34010KT 14/00 A3022 RMK A01 T01370003  RH  040%=      5-min Rain = 0
KCO1 171627Z 34010KT 14/00 A3022 RMK A01 T01370004  RH  040%=      5-min Rain = 0
KCO1 171628Z 33010KT 14/01 A3022 RMK A01 T01370005  RH  040%=      5-min Rain = 0
KCO1 171629Z 34011KT 14/01 A3022 RMK A01 T01380006  RH  041%=      5-min Rain = 0
KCO1 171630Z 34009KT 14/01 A3022 RMK A01 T01390008  RH  041%=      5-min Rain = 0
KCO1 171631Z 33011KT 14/01 A3021 RMK A01 T01400008  RH  040%=      5-min Rain = 0
KCO1 171632Z 34014KT 14/01 A3021 RMK A01 T01390005  RH  040%=      5-min Rain = 0
KCO1 171633Z 33013KT 14/01 A3021 RMK A01 T01390006  RH  040%=      5-min Rain = 0
KCO1 171634Z 33014KT 14/01 A3021 RMK A01 T01390005  RH  040%=      5-min Rain = 0
KCO1 171635Z 34012KT 14/00 A3021 RMK A01 T01390004  RH  040%=      5-min Rain = 0
KCO1 171636Z 33014KT 14/00 A3021 RMK A01 T01390004  RH  040%=      5-min Rain = 0
KCO1 171637Z 33011KT 14/00 A3022 RMK A01 T01380004  RH  040%=      5-min Rain = 0
KCO1 171638Z 34011KT 14/00 A3022 RMK A01 T01380004  RH  040%=      5-min Rain = 0
KCO1 171639Z 34008KT 14/00 A3022 RMK A01 T01380004  RH  040%=      5-min Rain = 0
KCO1 171640Z 33009KT 14/01 A3022 RMK A01 T01390006  RH  040%=      5-min Rain = 0
KCO1 171641Z 33010KT 14/01 A3022 RMK A01 T01400007  RH  040%=      5-min Rain = 0
KCO1 171642Z 33009KT 14/01 A3022 RMK A01 T01400005  RH  039%=      5-min Rain = 0
KCO1 171643Z 33010KT 14/00 A3022 RMK A01 T01400003  RH  039%=      5-min Rain = 0
KCO1 171644Z 33007KT 14/00 A3022 RMK A01 T01400003  RH  039%=      5-min Rain = 0
KCO1 171645Z 32009KT 14/00 A3022 RMK A01 T01400004  RH  039%=      5-min Rain = 0
KCO1 171646Z 33007KT 14/00 A3022 RMK A01 T01400004  RH  039%=      5-min Rain = 0
KCO1 171647Z 33009KT 14/00 A3022 RMK A01 T01410004  RH  039%=      5-min Rain = 0
KCO1 171648Z 32009KT 14/00 A3022 RMK A01 T01410004  RH  039%=      5-min Rain = 0
KCO1 171649Z 32011KT 14/01 A3022 RMK A01 T01410005  RH  039%=      5-min Rain = 0
KCO1 171650Z 34009KT 14/01 A3022 RMK A01 T01430007  RH  040%=      5-min Rain = 0
KCO1 171651Z 34009KT 14/01 A3022 RMK A01 T01430006  RH  039%=      5-min Rain = 0
KCO1 171652Z 33008KT 14/01 A3022 RMK A01 T01430005  RH  039%=      5-min Rain = 0
KCO1 171653Z 33012KT 14/01 A3022 RMK A01 T01430006  RH  039%=      5-min Rain = 0
KCO1 171654Z 34010KT 14/00 A3022 RMK A01 T01430004  RH  039%=      5-min Rain = 0
KCO1 171655Z 34010KT 14/01 A3022 RMK A01 T01420006  RH  039%=      5-min Rain = 0
KCO1 171656Z 33011KT 14/01 A3023 RMK A01 T01440006  RH  039%=      5-min Rain = 0
KCO1 171657Z 33009KT 14/00 A3023 RMK A01 T01430003  RH  038%=      5-min Rain = 0
KCO1 171658Z 33008KT 14/00 A3023 RMK A01 T01440004  RH  038%=      5-min Rain = 0
KCO1 171659Z 33010KT 14/01 A3023 RMK A01 T01440006  RH  039%=      5-min Rain = 0
KCO1 171700Z 34011KT 15/01 A3023 RMK A01 T01450005  RH  038%=      5-min Rain = 0
KCO1 171701Z 34009KT 15/01 A3023 RMK A01 T01460005  RH  038%=      5-min Rain = 0
KCO1 171702Z 32009KT 15/01 A3023 RMK A01 T01460007  RH  039%=      5-min Rain = 0
KCO1 171703Z 33009KT 15/01 A3023 RMK A01 T01470006  RH  038%=      5-min Rain = 0
KCO1 171704Z 33007KT 15/00 A3023 RMK A01 T01470003  RH  037%=      5-min Rain = 0
KCO1 171705Z 33008KT 15/00 A3023 RMK A01 T01470004  RH  038%=      5-min Rain = 0
KCO1 171706Z 32008KT 15/01 A3023 RMK A01 T01470005  RH  038%=      5-min Rain = 0
KCO1 171707Z 32010KT 15/01 A3023 RMK A01 T01480006  RH  038%=      5-min Rain = 0
KCO1 171708Z 32008KT 15/00 A3023 RMK A01 T01480004  RH  037%=      5-min Rain = 0
KCO1 171709Z 31007KT 15/01 A3023 RMK A01 T01480006  RH  038%=      5-min Rain = 0
KCO1 171710Z 33010KT 15/01 A3023 RMK A01 T01490006  RH  038%=      5-min Rain = 0
KCO1 171711Z 33012KT 15/01 A3023 RMK A01 T01490005  RH  037%=      5-min Rain = 0
KCO1 171712Z 33009KT 15/01 A3023 RMK A01 T01490005  RH  037%=      5-min Rain = 0
KCO1 171713Z 34011KT 15/01 A3023 RMK A01 T01500007  RH  038%=      5-min Rain = 0
KCO1 171714Z 35009KT 15/01 A3023 RMK A01 T01510006  RH  037%=      5-min Rain = 0
KCO1 171715Z 34009KT 15/01 A3023 RMK A01 T01500005  RH  037%=      5-min Rain = 0
KCO1 171716Z 35008KT 15/00 A3023 RMK A01 T01500004  RH  037%=      5-min Rain = 0
KCO1 171717Z 36006KT 15/01 A3022 RMK A01 T01490005  RH  037%=      5-min Rain = 0
KCO1 171718Z 34006KT 15/01 A3022 RMK A01 T01500008  RH  038%=      5-min Rain = 0
KCO1 171719Z 31008KT 15/01 A3022 RMK A01 T01520009  RH  038%=      5-min Rain = 0
KCO1 171720Z 33007KT 15/01 A3022 RMK A01 T01540010  RH  037%=      5-min Rain = 0
KCO1 171721Z 34010KT 15/01 A3022 RMK A01 T01540008  RH  037%=      5-min Rain = 0
KCO1 171722Z 34011KT 15/01 A3022 RMK A01 T01540009  RH  037%=      5-min Rain = 0
KCO1 171723Z 34012KT 15/01 A3022 RMK A01 T01530007  RH  037%=      5-min Rain = 0
KCO1 171724Z 34012KT 15/01 A3022 RMK A01 T01530008  RH  037%=      5-min Rain = 0
KCO1 171725Z 33008KT 15/01 A3022 RMK A01 T01530005  RH  036%=      5-min Rain = 0
KCO1 171726Z 32007KT 15/00 A3022 RMK A01 T01520002  RH  036%=      5-min Rain = 0
KCO1 171727Z 34007KT 15/00 A3022 RMK A01 T01500002  RH  036%=      5-min Rain = 0
KCO1 171728Z 35008KT 15/01 A3022 RMK A01 T01500006  RH  037%=      5-min Rain = 0
KCO1 171729Z 35008KT 15/01 A3022 RMK A01 T01510005  RH  037%=      5-min Rain = 0
KCO1 171730Z 33009KT 15/01 A3022 RMK A01 T01510005  RH  037%=      5-min Rain = 0
KCO1 171731Z 33010KT 15/01 A3022 RMK A01 T01510005  RH  037%=      5-min Rain = 0
KCO1 171732Z 32009KT 15/00 A3022 RMK A01 T01510004  RH  037%=      5-min Rain = 0
KCO1 171733Z 33006KT 15/00 A3022 RMK A01 T01510004  RH  037%=      5-min Rain = 0
KCO1 171734Z 32007KT 15/01 A3022 RMK A01 T01510005  RH  037%=      5-min Rain = 0
KCO1 171735Z 31008KT 15/01 A3021 RMK A01 T01510005  RH  037%=      5-min Rain = 0
KCO1 171736Z 32008KT 15/01 A3021 RMK A01 T01520005  RH  037%=      5-min Rain = 0
KCO1 171737Z 33006KT 15/00 A3021 RMK A01 T01520004  RH  036%=      5-min Rain = 0
KCO1 171738Z 33007KT 15/00 A3021 RMK A01 T01520004  RH  037%=      5-min Rain = 0
KCO1 171739Z 33009KT 15/01 A3021 RMK A01 T01520005  RH  037%=      5-min Rain = 0
KCO1 171740Z 33008KT 15/00 A3021 RMK A01 T01520004  RH  036%=      5-min Rain = 0
KCO1 171741Z 34008KT 15/01 A3021 RMK A01 T01520005  RH  037%=      5-min Rain = 0
KCO1 171742Z 35007KT 15/01 A3021 RMK A01 T01540007  RH  037%=      5-min Rain = 0
KCO1 171743Z 35007KT 16/01 A3021 RMK A01 T01560007  RH  036%=      5-min Rain = 0
KCO1 171744Z 36006KT 16/01 A3021 RMK A01 T01560006  RH  036%=      5-min Rain = 0
KCO1 171745Z 33007KT 16/01 A3021 RMK A01 T01560005  RH  036%=      5-min Rain = 0
KCO1 171746Z 34008KT 16/00 A3021 RMK A01 T01550004  RH  036%=      5-min Rain = 0
KCO1 171747Z 32008KT 16/01 A3021 RMK A01 T01550005  RH  036%=      5-min Rain = 0
KCO1 171748Z 32007KT 16/01 A3021 RMK A01 T01550005  RH  036%=      5-min Rain = 0
KCO1 171749Z 32006KT 16/00 A3021 RMK A01 T01550004  RH  036%=      5-min Rain = 0
KCO1 171750Z 33010KT 16/01 A302 RMK A01 T01550006  RH  036%=      5-min Rain = 0
KCO1 171751Z 32006KT 16/01 A302 RMK A01 T01580008  RH  036%=      5-min Rain = 0
KCO1 171752Z 31005KT 16/01 A302 RMK A01 T01590007  RH  036%=      5-min Rain = 0
KCO1 171753Z 32007KT 16/01 A302 RMK A01 T01590007  RH  036%=      5-min Rain = 0
KCO1 171754Z 32008KT 16/01 A302 RMK A01 T01590007  RH  036%=      5-min Rain = 0
KCO1 171755Z 33008KT 16/01 A302 RMK A01 T01590005  RH  035%=      5-min Rain = 0
KCO1 171756Z 34010KT 16/01 A3021 RMK A01 T01580006  RH  036%=      5-min Rain = 0
KCO1 171757Z 35009KT 16/01 A3021 RMK A01 T01570007  RH  036%=      5-min Rain = 0
KCO1 171758Z 33009KT 16/01 A3021 RMK A01 T01570006  RH  036%=      5-min Rain = 0
KCO1 171759Z 35009KT 16/01 A3021 RMK A01 T01570007  RH  036%=      5-min Rain = 0
KCO1 171800Z 35006KT 16/01 A3021 RMK A01 T01570006  RH  036%=      5-min Rain = 0
KCO1 171801Z 32005KT 16/00 A3021 RMK A01 T01570004  RH  035%=      5-min Rain = 0
KCO1 171802Z 33005KT 16/01 A302 RMK A01 T01560005  RH  036%=      5-min Rain = 0
KCO1 171803Z 30006KT 16/00 A302 RMK A01 T01560004  RH  036%=      5-min Rain = 0
KCO1 171804Z 32007KT 16/01 A302 RMK A01 T01560005  RH  036%=      5-min Rain = 0
KCO1 171805Z 33008KT 16/00 A302 RMK A01 T01560004  RH  036%=      5-min Rain = 0
KCO1 171806Z 31006KT 16/01 A302 RMK A01 T01560005  RH  036%=      5-min Rain = 0
KCO1 171807Z 31008KT 16/01 A302 RMK A01 T01570008  RH  036%=      5-min Rain = 0
KCO1 171808Z 31007KT 16/01 A302 RMK A01 T01580006  RH  036%=      5-min Rain = 0
KCO1 171809Z 32008KT 16/01 A302 RMK A01 T01580006  RH  036%=      5-min Rain = 0
KCO1 171810Z 32007KT 16/01 A302 RMK A01 T01580007  RH  036%=      5-min Rain = 0
KCO1 171811Z 32006KT 16/01 A302 RMK A01 T01580006  RH  035%=      5-min Rain = 0
KCO1 171812Z 32007KT 16/01 A302 RMK A01 T01580007  RH  036%=      5-min Rain = 0
KCO1 171813Z 33010KT 16/01 A3019 RMK A01 T01590008  RH  036%=      5-min Rain = 0
KCO1 171814Z 32010KT 16/01 A3019 RMK A01 T01590007  RH  035%=      5-min Rain = 0
KCO1 171815Z 32009KT 16/01 A3019 RMK A01 T01600006  RH  035%=      5-min Rain = 0
KCO1 171816Z 32007KT 16/01 A3019 RMK A01 T01600006  RH  035%=      5-min Rain = 0
KCO1 171817Z 33007KT 16/01 A3019 RMK A01 T01600007  RH  035%=      5-min Rain = 0
KCO1 171818Z 33007KT 16/01 A3019 RMK A01 T01600007  RH  035%=      5-min Rain = 0
KCO1 171819Z 31007KT 16/01 A3019 RMK A01 T01600007  RH  035%=      5-min Rain = 0
KCO1 171820Z 32008KT 16/01 A3019 RMK A01 T01600008  RH  036%=      5-min Rain = 0
KCO1 171821Z 32006KT 16/01 A3019 RMK A01 T01600007  RH  035%=      5-min Rain = 0
KCO1 171822Z 34007KT 16/01 A3019 RMK A01 T01600007  RH  035%=      5-min Rain = 0
KCO1 171823Z 34007KT 16/01 A302 RMK A01 T01600007  RH  035%=      5-min Rain = 0
KCO1 171824Z 34006KT 16/01 A3019 RMK A01 T01600006  RH  035%=      5-min Rain = 0
KCO1 171825Z 33006KT 16/01 A3019 RMK A01 T01590006  RH  035%=      5-min Rain = 0
KCO1 171826Z 33009KT 16/01 A3019 RMK A01 T01590006  RH  035%=      5-min Rain = 0
KCO1 171827Z 34008KT 16/01 A3019 RMK A01 T01590005  RH  035%=      5-min Rain = 0
KCO1 171828Z 34005KT 16/01 A3019 RMK A01 T01590006  RH  035%=      5-min Rain = 0
KCO1 171829Z 31008KT 16/01 A3019 RMK A01 T01580005  RH  035%=      5-min Rain = 0
KCO1 171830Z 32007KT 16/01 A3019 RMK A01 T01590008  RH  036%=      5-min Rain = 0
KCO1 171831Z 31005KT 16/01 A3019 RMK A01 T01610008  RH  035%=      5-min Rain = 0
KCO1 171832Z 32004KT 16/01 A3019 RMK A01 T01610006  RH  035%=      5-min Rain = 0
KCO1 171833Z 31006KT 16/01 A3019 RMK A01 T01610007  RH  035%=      5-min Rain = 0
KCO1 171834Z 31007KT 16/01 A3019 RMK A01 T01630009  RH  035%=      5-min Rain = 0
KCO1 171835Z 32005KT 16/01 A3019 RMK A01 T01620005  RH  034%=      5-min Rain = 0
KCO1 171836Z 32004G9KT 16/01 A3019 RMK A01 T01610006  RH  035%=      5-min Rain = 0
KCO1 171837Z 32008KT 16/01 A3019 RMK A01 T01620009  RH  035%=      5-min Rain = 0
KCO1 171838Z 30007KT 16/01 A3019 RMK A01 T01630008  RH  035%=      5-min Rain = 0
KCO1 171839Z 28010KT 16/01 A3019 RMK A01 T01640010  RH  035%=      5-min Rain = 0
KCO1 171840Z 29009KT 17/01 A3018 RMK A01 T01650009  RH  035%=      5-min Rain = 0
KCO1 171841Z 27005KT 17/01 A3018 RMK A01 T01650008  RH  034%=      5-min Rain = 0
KCO1 171842Z 26006KT 17/01 A3018 RMK A01 T01650008  RH  035%=      5-min Rain = 0
KCO1 171843Z 28006KT 17/01 A3018 RMK A01 T01660013  RH  035%=      5-min Rain = 0
KCO1 171844Z 31007KT 17/01 A3018 RMK A01 T01690012  RH  035%=      5-min Rain = 0
KCO1 171845Z 32008KT 17/01 A3018 RMK A01 T01700010  RH  034%=      5-min Rain = 0
KCO1 171846Z 34010KT 17/01 A3018 RMK A01 T01700009  RH  034%=      5-min Rain = 0
KCO1 171847Z 32009KT 17/01 A3018 RMK A01 T01680005  RH  033%=      5-min Rain = 0
KCO1 171848Z 32009KT 17/01 A3018 RMK A01 T01660009  RH  034%=      5-min Rain = 0
KCO1 171849Z 32007KT 17/01 A3018 RMK A01 T01680008  RH  034%=      5-min Rain = 0
KCO1 171850Z 33006KT 17/01 A3018 RMK A01 T01680007  RH  034%=      5-min Rain = 0
KCO1 171851Z 32007KT 17/01 A3018 RMK A01 T01680006  RH  033%=      5-min Rain = 0
KCO1 171852Z 32004KT 17/01 A3018 RMK A01 T01680005  RH  033%=      5-min Rain = 0
KCO1 171853Z 30003KT 17/00 A3018 RMK A01 T01670004  RH  033%=      5-min Rain = 0
KCO1 171854Z 29003KT 17/01 A3018 RMK A01 T01660005  RH  034%=      5-min Rain = 0
KCO1 171855Z 32003KT 17/01 A3018 RMK A01 T01650006  RH  034%=      5-min Rain = 0
KCO1 171856Z 33004KT 17/01 A3018 RMK A01 T01660008  RH  034%=      5-min Rain = 0
KCO1 171857Z 35004KT 17/01 A3017 RMK A01 T01680010  RH  034%=      5-min Rain = 0
KCO1 171858Z 35003KT 17/01 A3017 RMK A01 T01690010  RH  034%=      5-min Rain = 0
KCO1 171859Z 31006KT 17/01 A3017 RMK A01 T01710010  RH  034%=      5-min Rain = 0
KCO1 171900Z 32009KT 17/01 A3017 RMK A01 T01710009  RH  033%=      5-min Rain = 0
KCO1 171901Z 32008KT 17/01 A3017 RMK A01 T01700008  RH  033%=      5-min Rain = 0
KCO1 171902Z 32007KT 17/01 A3017 RMK A01 T01700008  RH  033%=      5-min Rain = 0
KCO1 171903Z 33005KT 17/01 A3017 RMK A01 T01700009  RH  034%=      5-min Rain = 0
KCO1 171904Z 33006KT 17/01 A3016 RMK A01 T01700006  RH  033%=      5-min Rain = 0
KCO1 171905Z 35004KT 17/01 A3017 RMK A01 T01680005  RH  033%=      5-min Rain = 0
KCO1 171906Z 36004KT 17/01 A3017 RMK A01 T01660006  RH  034%=      5-min Rain = 0
KCO1 171907Z 36004KT 17/01 A3017 RMK A01 T01670007  RH  034%=      5-min Rain = 0
KCO1 171908Z 32007KT 17/01 A3016 RMK A01 T01670010  RH  034%=      5-min Rain = 0
KCO1 171909Z 32003KT 17/01 A3016 RMK A01 T01690009  RH  034%=      5-min Rain = 0
KCO1 171910Z 32001KT 17/01 A3016 RMK A01 T01700010  RH  034%=      5-min Rain = 0
KCO1 171911Z 30004KT 17/01 A3016 RMK A01 T01710011  RH  034%=      5-min Rain = 0
KCO1 171912Z 31007KT 17/01 A3016 RMK A01 T01720011  RH  034%=      5-min Rain = 0
KCO1 171913Z 31004KT 17/01 A3017 RMK A01 T01700008  RH  033%=      5-min Rain = 0
KCO1 171914Z 27005KT 17/01 A3016 RMK A01 T01690008  RH  034%=      5-min Rain = 0
KCO1 171915Z 26004KT 17/01 A3016 RMK A01 T01690011  RH  034%=      5-min Rain = 0
KCO1 171916Z 23003KT 17/01 A3016 RMK A01 T01710009  RH  034%=      5-min Rain = 0
KCO1 171917Z 28003KT 17/01 A3016 RMK A01 T01710009  RH  033%=      5-min Rain = 0
KCO1 171918Z 33004KT 17/01 A3016 RMK A01 T01720010  RH  033%=      5-min Rain = 0
KCO1 171919Z 32004KT 17/01 A3016 RMK A01 T01720007  RH  033%=      5-min Rain = 0
KCO1 171920Z 32005KT 17/01 A3016 RMK A01 T01710009  RH  033%=      5-min Rain = 0
KCO1 171921Z 33005KT 17/01 A3016 RMK A01 T01700008  RH  033%=      5-min Rain = 0
KCO1 171922Z 33004KT 17/01 A3015 RMK A01 T01690009  RH  034%=      5-min Rain = 0
KCO1 171923Z 32004KT 17/01 A3016 RMK A01 T01700012  RH  034%=      5-min Rain = 0
KCO1 171924Z 32005KT 17/01 A3016 RMK A01 T01710010  RH  034%=      5-min Rain = 0
KCO1 171925Z 32005KT 17/01 A3015 RMK A01 T01710011  RH  034%=      5-min Rain = 0
KCO1 171926Z 33005KT 17/01 A3015 RMK A01 T01720012  RH  034%=      5-min Rain = 0
KCO1 171927Z 32006KT 17/01 A3015 RMK A01 T01740011  RH  033%=      5-min Rain = 0
KCO1 171928Z 32005KT 17/01 A3015 RMK A01 T01730007  RH  033%=      5-min Rain = 0
KCO1 171929Z 33005KT 17/01 A3015 RMK A01 T01700006  RH  033%=      5-min Rain = 0
KCO1 171930Z 00003KT 17/01 A3015 RMK A01 T01690006  RH  033%=      5-min Rain = 0
KCO1 171931Z 02002KT 17/01 A3015 RMK A01 T01690006  RH  033%=      5-min Rain = 0
KCO1 171932Z 00002KT 17/01 A3014 RMK A01 T01690006  RH  033%=      5-min Rain = 0
KCO1 171933Z 29003KT 17/01 A3014 RMK A01 T01690009  RH  034%=      5-min Rain = 0
KCO1 171934Z 28005KT 17/01 A3014 RMK A01 T01700010  RH  034%=      5-min Rain = 0
KCO1 171935Z 29006KT 17/01 A3014 RMK A01 T01710010  RH  034%=      5-min Rain = 0
KCO1 171936Z 30007KT 17/01 A3014 RMK A01 T01730012  RH  034%=      5-min Rain = 0
KCO1 171937Z 31005KT 17/01 A3014 RMK A01 T01740010  RH  033%=      5-min Rain = 0
KCO1 171938Z 31003KT 17/01 A3014 RMK A01 T01730008  RH  033%=      5-min Rain = 0
KCO1 171939Z 32001KT 17/01 A3014 RMK A01 T01710008  RH  033%=      5-min Rain = 0
KCO1 171940Z 30005G10KT 17/01 A3014 RMK A01 T01720012  RH  034%=      5-min Rain = 0
KCO1 171941Z 32007KT 18/01 A3014 RMK A01 T01750013  RH  034%=      5-min Rain = 0
KCO1 171942Z 32006KT 18/02 A3014 RMK A01 T01770015  RH  034%=      5-min Rain = 0
KCO1 171943Z 33007KT 18/01 A3014 RMK A01 T01780012  RH  033%=      5-min Rain = 0
KCO1 171944Z 34007KT 18/01 A3014 RMK A01 T01760008  RH  032%=      5-min Rain = 0
KCO1 171945Z 34006KT 17/01 A3013 RMK A01 T01740009  RH  033%=      5-min Rain = 0
KCO1 171946Z 32004KT 17/01 A3013 RMK A01 T01730009  RH  033%=      5-min Rain = 0
KCO1 171947Z 33003KT 17/01 A3013 RMK A01 T01730008  RH  033%=      5-min Rain = 0
KCO1 171948Z 31004KT 17/01 A3013 RMK A01 T01720007  RH  033%=      5-min Rain = 0
KCO1 171949Z 30006KT 17/01 A3013 RMK A01 T01710010  RH  034%=      5-min Rain = 0
KCO1 171950Z 31009KT 17/01 A3013 RMK A01 T01720009  RH  033%=      5-min Rain = 0
KCO1 171951Z 31006KT 17/01 A3013 RMK A01 T01710007  RH  033%=      5-min Rain = 0
KCO1 171952Z 27004KT 17/01 A3013 RMK A01 T01700009  RH  034%=      5-min Rain = 0
KCO1 171953Z 27007KT 17/01 A3013 RMK A01 T01710011  RH  034%=      5-min Rain = 0
KCO1 171954Z 30007KT 17/01 A3013 RMK A01 T01720012  RH  034%=      5-min Rain = 0
KCO1 171955Z 29007KT 17/01 A3013 RMK A01 T01730009  RH  033%=      5-min Rain = 0
KCO1 171956Z 28007KT 17/01 A3013 RMK A01 T01720011  RH  034%=      5-min Rain = 0
KCO1 171957Z 29008KT 17/01 A3013 RMK A01 T01740014  RH  034%=      5-min Rain = 0
KCO1 171958Z 31007KT 18/01 A3013 RMK A01 T01760012  RH  033%=      5-min Rain = 0
KCO1 171959Z 29007KT 18/01 A3013 RMK A01 T01770011  RH  033%=      5-min Rain = 0
KCO1 172000Z 31007KT 18/01 A3013 RMK A01 T01780011  RH  033%=      5-min Rain = 0
KCO1 172001Z 32006KT 18/01 A3012 RMK A01 T01770008  RH  032%=      5-min Rain = 0
KCO1 172002Z 33005KT 18/01 A3012 RMK A01 T01750007  RH  032%=      5-min Rain = 0
KCO1 172003Z 32004KT 17/01 A3013 RMK A01 T01740006  RH  032%=      5-min Rain = 0
KCO1 172004Z 28005KT 17/01 A3013 RMK A01 T01740008  RH  033%=      5-min Rain = 0
KCO1 172005Z 28007KT 18/01 A3013 RMK A01 T01750013  RH  034%=      5-min Rain = 0
KCO1 172006Z 27008KT 18/01 A3013 RMK A01 T01760011  RH  033%=      5-min Rain = 0
KCO1 172007Z 29006KT 18/01 A3013 RMK A01 T01770012  RH  033%=      5-min Rain = 0
KCO1 172008Z 31003KT 18/01 A3012 RMK A01 T01780010  RH  032%=      5-min Rain = 0
KCO1 172009Z 29004KT 18/01 A3012 RMK A01 T01770010  RH  032%=      5-min Rain = 0
KCO1 172010Z 29004KT 18/01 A3012 RMK A01 T01780011  RH  033%=      5-min Rain = 0
KCO1 172011Z 29004KT 18/01 A3012 RMK A01 T01780010  RH  032%=      5-min Rain = 0
KCO1 172012Z 29003KT 18/01 A3012 RMK A01 T01780009  RH  032%=      5-min Rain = 0
KCO1 172013Z 32007KT 18/01 A3012 RMK A01 T01780010  RH  032%=      5-min Rain = 0
KCO1 172014Z 33009KT 18/01 A3012 RMK A01 T01770010  RH  032%=      5-min Rain = 0
KCO1 172015Z 33011KT 18/01 A3012 RMK A01 T01770009  RH  032%=      5-min Rain = 0
KCO1 172016Z 33007KT 18/01 A3012 RMK A01 T01760008  RH  032%=      5-min Rain = 0
KCO1 172017Z 34007KT 17/01 A3012 RMK A01 T01740009  RH  033%=      5-min Rain = 0
KCO1 172018Z 35006KT 17/01 A3012 RMK A01 T01740009  RH  033%=      5-min Rain = 0
KCO1 172019Z 35004KT 17/01 A3012 RMK A01 T01730008  RH  033%=      5-min Rain = 0
KCO1 172020Z 32004KT 17/01 A3012 RMK A01 T01720010  RH  033%=      5-min Rain = 0
KCO1 172021Z 29006KT 17/01 A3012 RMK A01 T01720008  RH  033%=      5-min Rain = 0
KCO1 172022Z 27006KT 17/01 A3012 RMK A01 T01720008  RH  033%=      5-min Rain = 0
KCO1 172023Z 29004KT 17/01 A3012 RMK A01 T01720011  RH  034%=      5-min Rain = 0
KCO1 172024Z 32006KT 17/01 A3012 RMK A01 T01730010  RH  033%=      5-min Rain = 0
KCO1 172025Z 31007KT 17/01 A3012 RMK A01 T01740009  RH  033%=      5-min Rain = 0
KCO1 172026Z 32005KT 18/01 A3012 RMK A01 T01750009  RH  033%=      5-min Rain = 0
KCO1 172027Z 32006KT 18/01 A3012 RMK A01 T01760009  RH  032%=      5-min Rain = 0
KCO1 172028Z 30007KT 18/01 A3012 RMK A01 T01770012  RH  033%=      5-min Rain = 0
KCO1 172029Z 28007KT 18/01 A3012 RMK A01 T01790013  RH  033%=      5-min Rain = 0
KCO1 172030Z 26007KT 18/01 A3012 RMK A01 T01800012  RH  032%=      5-min Rain = 0
KCO1 172031Z 26006KT 18/01 A3012 RMK A01 T01790010  RH  032%=      5-min Rain = 0
KCO1 172032Z 27008KT 18/01 A3012 RMK A01 T01770011  RH  033%=      5-min Rain = 0
KCO1 172033Z 27008KT 18/01 A3012 RMK A01 T01770011  RH  033%=      5-min Rain = 0
KCO1 172034Z 27006KT 18/01 A3012 RMK A01 T01760009  RH  032%=      5-min Rain = 0
KCO1 172035Z 28008KT 18/01 A3012 RMK A01 T01760011  RH  033%=      5-min Rain = 0
KCO1 172036Z 29006KT 18/01 A3012 RMK A01 T01760011  RH  033%=      5-min Rain = 0
KCO1 172037Z 28005KT 18/01 A3012 RMK A01 T01750010  RH  033%=      5-min Rain = 0
KCO1 172038Z 25005KT 18/01 A3012 RMK A01 T01760012  RH  033%=      5-min Rain = 0
KCO1 172039Z 23004KT 18/01 A3012 RMK A01 T01790012  RH  033%=      5-min Rain = 0
KCO1 172040Z 20004KT 18/01 A3012 RMK A01 T01810013  RH  032%=      5-min Rain = 0
KCO1 172041Z 22003KT 18/01 A3012 RMK A01 T01820010  RH  031%=      5-min Rain = 0
KCO1 172042Z 28004KT 18/01 A3012 RMK A01 T01810011  RH  032%=      5-min Rain = 0
KCO1 172043Z 29007KT 18/01 A3012 RMK A01 T01800012  RH  032%=      5-min Rain = 0
KCO1 172044Z 30005KT 18/01 A3012 RMK A01 T01790010  RH  032%=      5-min Rain = 0
KCO1 172045Z 29005KT 18/01 A3012 RMK A01 T01760010  RH  033%=      5-min Rain = 0
KCO1 172046Z 29006KT 18/01 A3012 RMK A01 T01770012  RH  033%=      5-min Rain = 0
KCO1 172047Z 31006KT 18/01 A3012 RMK A01 T01770009  RH  032%=      5-min Rain = 0
KCO1 172048Z 34007KT 18/01 A3012 RMK A01 T01770011  RH  033%=      5-min Rain = 0
KCO1 172049Z 34007KT 18/01 A3012 RMK A01 T01790010  RH  032%=      5-min Rain = 0
KCO1 172050Z 34007KT 18/01 A3012 RMK A01 T01790011  RH  032%=      5-min Rain = 0
KCO1 172051Z 32006KT 18/01 A3012 RMK A01 T01800009  RH  032%=      5-min Rain = 0
KCO1 172052Z 32005KT 18/01 A3012 RMK A01 T01790007  RH  031%=      5-min Rain = 0
KCO1 172053Z 32006KT 18/01 A3012 RMK A01 T01790008  RH  032%=      5-min Rain = 0
KCO1 172054Z 29006KT 18/01 A3012 RMK A01 T01780010  RH  032%=      5-min Rain = 0
KCO1 172055Z 31008KT 18/01 A3012 RMK A01 T01810013  RH  032%=      5-min Rain = 0
KCO1 172056Z 31007KT 18/01 A3012 RMK A01 T01820010  RH  031%=      5-min Rain = 0
KCO1 172057Z 31005KT 18/01 A3012 RMK A01 T01810010  RH  031%=      5-min Rain = 0
KCO1 172058Z 31005KT 18/01 A3012 RMK A01 T01810009  RH  031%=      5-min Rain = 0
KCO1 172059Z 28005KT 18/01 A3012 RMK A01 T01810010  RH  032%=      5-min Rain = 0
KCO1 172100Z 28003KT 18/01 A3012 RMK A01 T01810012  RH  032%=      5-min Rain = 0
KCO1 172101Z 28005KT 18/01 A3012 RMK A01 T01820011  RH  032%=      5-min Rain = 0
KCO1 172102Z 27006KT 18/01 A3012 RMK A01 T01830011  RH  032%=      5-min Rain = 0
KCO1 172103Z 28006KT 18/01 A3012 RMK A01 T01830013  RH  032%=      5-min Rain = 0
KCO1 172104Z 27007KT 18/01 A3012 RMK A01 T01820012  RH  032%=      5-min Rain = 0
KCO1 172105Z 25005KT 18/01 A3012 RMK A01 T01790009  RH  032%=      5-min Rain = 0
KCO1 172106Z 25006KT 18/01 A3012 RMK A01 T01780008  RH  032%=      5-min Rain = 0
KCO1 172107Z 27005KT 18/01 A3012 RMK A01 T01780010  RH  032%=      5-min Rain = 0
KCO1 172108Z 28004KT 18/02 A3012 RMK A01 T01810016  RH  033%=      5-min Rain = 0
KCO1 172109Z 26006KT 18/01 A3012 RMK A01 T01840014  RH  032%=      5-min Rain = 0
KCO1 172110Z 26005KT 18/01 A3012 RMK A01 T01840012  RH  032%=      5-min Rain = 0
KCO1 172111Z 26006KT 18/01 A3012 RMK A01 T01840014  RH  032%=      5-min Rain = 0
KCO1 172112Z 27009KT 19/02 A3012 RMK A01 T01850016  RH  032%=      5-min Rain = 0
KCO1 172113Z 28009KT 19/02 A3012 RMK A01 T01850015  RH  032%=      5-min Rain = 0
KCO1 172114Z 31006KT 19/01 A3012 RMK A01 T01850012  RH  031%=      5-min Rain = 0
KCO1 172115Z 32004KT 18/01 A3011 RMK A01 T01830010  RH  031%=      5-min Rain = 0
KCO1 172116Z 33005KT 18/01 A3011 RMK A01 T01820009  RH  031%=      5-min Rain = 0
KCO1 172117Z 29005KT 18/01 A3011 RMK A01 T01810010  RH  032%=      5-min Rain = 0
KCO1 172118Z 27009KT 18/01 A3012 RMK A01 T01810014  RH  033%=      5-min Rain = 0
KCO1 172119Z 27009KT 18/01 A3012 RMK A01 T01830014  RH  032%=      5-min Rain = 0
KCO1 172120Z 28010KT 18/01 A3012 RMK A01 T01840013  RH  032%=      5-min Rain = 0
KCO1 172121Z 27009KT 18/01 A3012 RMK A01 T01830012  RH  032%=      5-min Rain = 0
KCO1 172122Z 26008KT 18/01 A3012 RMK A01 T01830012  RH  032%=      5-min Rain = 0
KCO1 172123Z 27009KT 18/01 A3012 RMK A01 T01820013  RH  032%=      5-min Rain = 0
KCO1 172124Z 27008KT 18/01 A3012 RMK A01 T01830014  RH  032%=      5-min Rain = 0
KCO1 172125Z 28007KT 18/01 A3012 RMK A01 T01830011  RH  031%=      5-min Rain = 0
KCO1 172126Z 28007KT 18/01 A3012 RMK A01 T01820012  RH  032%=      5-min Rain = 0
KCO1 172127Z 28007KT 18/01 A3012 RMK A01 T01820014  RH  032%=      5-min Rain = 0
KCO1 172128Z 25006KT 18/01 A3012 RMK A01 T01820014  RH  032%=      5-min Rain = 0
KCO1 172129Z 25008KT 18/01 A3012 RMK A01 T01820014  RH  032%=      5-min Rain = 0
KCO1 172130Z 27009KT 18/01 A3012 RMK A01 T01830014  RH  032%=      5-min Rain = 0
KCO1 172131Z 27010KT 18/02 A3012 RMK A01 T01840015  RH  032%=      5-min Rain = 0
KCO1 172132Z 29010KT 18/01 A3012 RMK A01 T01840014  RH  032%=      5-min Rain = 0
KCO1 172133Z 29008KT 18/01 A3012 RMK A01 T01830012  RH  032%=      5-min Rain = 0
KCO1 172134Z 30008KT 18/01 A3012 RMK A01 T01820012  RH  032%=      5-min Rain = 0
KCO1 172135Z 28008KT 18/01 A3012 RMK A01 T01810011  RH  032%=      5-min Rain = 0
KCO1 172136Z 28006KT 18/01 A3012 RMK A01 T01790013  RH  033%=      5-min Rain = 0
KCO1 172137Z 28008KT 18/01 A3012 RMK A01 T01800013  RH  033%=      5-min Rain = 0
KCO1 172138Z 29006KT 18/01 A3012 RMK A01 T01800012  RH  032%=      5-min Rain = 0
KCO1 172139Z 29006KT 18/01 A3012 RMK A01 T01800012  RH  032%=      5-min Rain = 0
KCO1 172140Z 27007KT 18/01 A3012 RMK A01 T01810013  RH  032%=      5-min Rain = 0
KCO1 172141Z 28007KT 18/01 A3012 RMK A01 T01820013  RH  032%=      5-min Rain = 0
KCO1 172142Z 29005KT 18/01 A3012 RMK A01 T01820011  RH  032%=      5-min Rain = 0
KCO1 172143Z 29004KT 18/01 A3012 RMK A01 T01830012  RH  032%=      5-min Rain = 0
KCO1 172144Z 26004KT 18/01 A3012 RMK A01 T01830011  RH  031%=      5-min Rain = 0
KCO1 172145Z 27004KT 18/01 A3012 RMK A01 T01840012  RH  032%=      5-min Rain = 0
KCO1 172146Z 27008KT 19/01 A3012 RMK A01 T01850013  RH  032%=      5-min Rain = 0
KCO1 172147Z 27008KT 19/01 A3012 RMK A01 T01850012  RH  031%=      5-min Rain = 0
KCO1 172148Z 31006KT 19/01 A3012 RMK A01 T01860014  RH  032%=      5-min Rain = 0
KCO1 172149Z 32009KT 19/01 A3012 RMK A01 T01860012  RH  031%=      5-min Rain = 0
KCO1 172150Z 30005KT 18/01 A3012 RMK A01 T01840010  RH  031%=      5-min Rain = 0
KCO1 172151Z 31005KT 18/01 A3012 RMK A01 T01840012  RH  032%=      5-min Rain = 0
KCO1 172152Z 31008KT 18/01 A3012 RMK A01 T01840012  RH  032%=      5-min Rain = 0
KCO1 172153Z 31009KT 18/01 A3012 RMK A01 T01840011  RH  031%=      5-min Rain = 0
KCO1 172154Z 30009KT 18/01 A3012 RMK A01 T01830010  RH  031%=      5-min Rain = 0
KCO1 172155Z 31008KT 18/01 A3012 RMK A01 T01820011  RH  032%=      5-min Rain = 0
KCO1 172156Z 31007KT 18/01 A3012 RMK A01 T01820011  RH  032%=      5-min Rain = 0
KCO1 172157Z 32007KT 18/01 A3012 RMK A01 T01810010  RH  032%=      5-min Rain = 0
KCO1 172158Z 31008KT 18/01 A3012 RMK A01 T01790009  RH  032%=      5-min Rain = 0
KCO1 172159Z 32007KT 18/01 A3012 RMK A01 T01780009  RH  032%=      5-min Rain = 0
KCO1 172200Z 31007KT 18/01 A3012 RMK A01 T01770009  RH  032%=      5-min Rain = 0
KCO1 172201Z 31006KT 18/01 A3012 RMK A01 T01760009  RH  032%=      5-min Rain = 0
KCO1 172202Z 30009KT 18/01 A3012 RMK A01 T01760010  RH  033%=      5-min Rain = 0
KCO1 172203Z 30006KT 18/01 A3012 RMK A01 T01770009  RH  032%=      5-min Rain = 0
KCO1 172204Z 30006KT 18/01 A3012 RMK A01 T01770009  RH  032%=      5-min Rain = 0
KCO1 172205Z 29006KT 18/01 A3012 RMK A01 T01780010  RH  032%=      5-min Rain = 0
KCO1 172206Z 29005KT 18/01 A3012 RMK A01 T01780010  RH  032%=      5-min Rain = 0
KCO1 172207Z 31005KT 18/01 A3012 RMK A01 T01780011  RH  033%=      5-min Rain = 0
KCO1 172208Z 30005KT 18/01 A3012 RMK A01 T01770011  RH  033%=      5-min Rain = 0
KCO1 172209Z 30005KT 18/01 A3012 RMK A01 T01770010  RH  032%=      5-min Rain = 0
KCO1 172210Z 31006KT 18/01 A3012 RMK A01 T01770010  RH  033%=      5-min Rain = 0
KCO1 172211Z 30007KT 18/01 A3012 RMK A01 T01770012  RH  033%=      5-min Rain = 0
KCO1 172212Z 28006KT 18/01 A3012 RMK A01 T01770012  RH  033%=      5-min Rain = 0
KCO1 172213Z 28006KT 18/01 A3012 RMK A01 T01780014  RH  033%=      5-min Rain = 0
KCO1 172214Z 29008KT 18/01 A3012 RMK A01 T01790014  RH  033%=      5-min Rain = 0
KCO1 172215Z 29007KT 18/01 A3012 RMK A01 T01800013  RH  033%=      5-min Rain = 0
KCO1 172216Z 30006KT 18/01 A3012 RMK A01 T01800012  RH  032%=      5-min Rain = 0
KCO1 172217Z 30008KT 18/01 A3012 RMK A01 T01800013  RH  032%=      5-min Rain = 0
KCO1 172218Z 30008KT 18/01 A3012 RMK A01 T01800010  RH  032%=      5-min Rain = 0
KCO1 172219Z 29007KT 18/01 A3012 RMK A01 T01790010  RH  032%=      5-min Rain = 0
KCO1 172220Z 30007KT 18/01 A3012 RMK A01 T01790010  RH  032%=      5-min Rain = 0
KCO1 172221Z 30006KT 18/01 A3012 RMK A01 T01790011  RH  032%=      5-min Rain = 0
KCO1 172222Z 30007KT 18/01 A3011 RMK A01 T01790010  RH  032%=      5-min Rain = 0
KCO1 172223Z 31005KT 18/01 A3011 RMK A01 T01790011  RH  032%=      5-min Rain = 0
KCO1 172224Z 30007KT 18/01 A3011 RMK A01 T01800012  RH  032%=      5-min Rain = 0
KCO1 172225Z 31007KT 18/01 A3011 RMK A01 T01800011  RH  032%=      5-min Rain = 0
KCO1 172226Z 31006KT 18/01 A3011 RMK A01 T01800010  RH  032%=      5-min Rain = 0
KCO1 172227Z 31005KT 18/01 A3011 RMK A01 T01790010  RH  032%=      5-min Rain = 0
KCO1 172228Z 30008KT 18/01 A3011 RMK A01 T01790013  RH  033%=      5-min Rain = 0
KCO1 172229Z 30006KT 18/01 A3011 RMK A01 T01800010  RH  032%=      5-min Rain = 0
KCO1 172230Z 30005KT 18/01 A3011 RMK A01 T01790009  RH  032%=      5-min Rain = 0
KCO1 172231Z 28005KT 18/01 A3011 RMK A01 T01790011  RH  032%=      5-min Rain = 0
KCO1 172232Z 28005KT 18/01 A3011 RMK A01 T01800012  RH  032%=      5-min Rain = 0
KCO1 172233Z 29008KT 18/01 A3011 RMK A01 T01810013  RH  032%=      5-min Rain = 0
KCO1 172234Z 29008KT 18/01 A3011 RMK A01 T01810012  RH  032%=      5-min Rain = 0
KCO1 172235Z 29006KT 18/01 A3011 RMK A01 T01810012  RH  032%=      5-min Rain = 0
KCO1 172236Z 29007KT 18/01 A3011 RMK A01 T01800012  RH  032%=      5-min Rain = 0
KCO1 172237Z 29004KT 18/01 A3011 RMK A01 T01790011  RH  032%=      5-min Rain = 0
KCO1 172238Z 29005KT 18/01 A3011 RMK A01 T01800012  RH  032%=      5-min Rain = 0
KCO1 172239Z 28007KT 18/01 A3011 RMK A01 T01800013  RH  032%=      5-min Rain = 0
KCO1 172240Z 28007KT 18/01 A3011 RMK A01 T01800011  RH  032%=      5-min Rain = 0
KCO1 172241Z 28007KT 18/01 A3011 RMK A01 T01800012  RH  032%=      5-min Rain = 0
KCO1 172242Z 28006KT 18/01 A3011 RMK A01 T01800012  RH  032%=      5-min Rain = 0
KCO1 172243Z 27008KT 18/01 A3011 RMK A01 T01790012  RH  032%=      5-min Rain = 0
KCO1 172244Z 28008KT 18/01 A3011 RMK A01 T01790012  RH  033%=      5-min Rain = 0
KCO1 172245Z 28006KT 18/01 A3011 RMK A01 T01790012  RH  033%=      5-min Rain = 0
KCO1 172246Z 30005KT 18/01 A3011 RMK A01 T01790013  RH  033%=      5-min Rain = 0
KCO1 172247Z 29006KT 18/01 A3011 RMK A01 T01790012  RH  032%=      5-min Rain = 0
KCO1 172248Z 29007KT 18/01 A3011 RMK A01 T01790011  RH  032%=      5-min Rain = 0
KCO1 172249Z 29007KT 18/01 A3011 RMK A01 T01790012  RH  032%=      5-min Rain = 0
KCO1 172250Z 29007KT 18/01 A3011 RMK A01 T01790011  RH  032%=      5-min Rain = 0
KCO1 172251Z 29008KT 18/01 A3011 RMK A01 T01790011  RH  032%=      5-min Rain = 0
KCO1 172252Z 28006KT 18/01 A3011 RMK A01 T01790010  RH  032%=      5-min Rain = 0
KCO1 172253Z 28006KT 18/01 A3011 RMK A01 T01780011  RH  033%=      5-min Rain = 0
KCO1 172254Z 29006KT 18/01 A3011 RMK A01 T01780010  RH  032%=      5-min Rain = 0
KCO1 172255Z 29007KT 18/01 A3011 RMK A01 T01780010  RH  032%=      5-min Rain = 0
KCO1 172256Z 28006KT 18/01 A3011 RMK A01 T01790010  RH  032%=      5-min Rain = 0
KCO1 172257Z 29006KT 18/01 A3011 RMK A01 T01780011  RH  032%=      5-min Rain = 0
KCO1 172258Z 29006KT 18/01 A3011 RMK A01 T01780011  RH  032%=      5-min Rain = 0
KCO1 172259Z 28006KT 18/01 A3011 RMK A01 T01780010  RH  032%=      5-min Rain = 0
KCO1 172300Z 27006KT 18/01 A3011 RMK A01 T01790011  RH  032%=      5-min Rain = 0
KCO1 172301Z 27008KT 18/01 A3011 RMK A01 T01780012  RH  033%=      5-min Rain = 0
KCO1 172302Z 27008KT 18/01 A3011 RMK A01 T01770010  RH  032%=      5-min Rain = 0
KCO1 172303Z 27007KT 18/01 A3011 RMK A01 T01770009  RH  032%=      5-min Rain = 0
KCO1 172304Z 27005KT 18/01 A3011 RMK A01 T01770010  RH  032%=      5-min Rain = 0
KCO1 172305Z 27006KT 18/01 A3011 RMK A01 T01770011  RH  033%=      5-min Rain = 0
KCO1 172306Z 29006KT 18/01 A3011 RMK A01 T01770011  RH  033%=      5-min Rain = 0
KCO1 172307Z 28006KT 18/01 A3011 RMK A01 T01780011  RH  032%=      5-min Rain = 0
KCO1 172308Z 29005KT 18/01 A3011 RMK A01 T01770011  RH  033%=      5-min Rain = 0
KCO1 172309Z 28005KT 18/01 A3011 RMK A01 T01770012  RH  033%=      5-min Rain = 0
KCO1 172310Z 29004KT 18/01 A3011 RMK A01 T01770013  RH  033%=      5-min Rain = 0
KCO1 172311Z 29005KT 18/01 A3011 RMK A01 T01770014  RH  033%=      5-min Rain = 0
KCO1 172312Z 29006KT 18/01 A3011 RMK A01 T01770012  RH  033%=      5-min Rain = 0
KCO1 172313Z 27007KT 18/01 A3011 RMK A01 T01760012  RH  033%=      5-min Rain = 0
KCO1 172314Z 28007KT 18/01 A3011 RMK A01 T01760013  RH  033%=      5-min Rain = 0
KCO1 172315Z 28007KT 18/01 A3011 RMK A01 T01760013  RH  033%=      5-min Rain = 0
KCO1 172316Z 28005KT 18/01 A3011 RMK A01 T01750012  RH  033%=      5-min Rain = 0
KCO1 172317Z 28005KT 17/01 A3011 RMK A01 T01740012  RH  033%=      5-min Rain = 0
KCO1 172318Z 28006KT 17/01 A3011 RMK A01 T01740012  RH  034%=      5-min Rain = 0
KCO1 172319Z 29005KT 17/01 A3011 RMK A01 T01740013  RH  034%=      5-min Rain = 0
KCO1 172320Z 29006KT 17/01 A3011 RMK A01 T01740011  RH  033%=      5-min Rain = 0
KCO1 172321Z 29005KT 17/01 A3011 RMK A01 T01740011  RH  033%=      5-min Rain = 0
KCO1 172322Z 29005KT 17/01 A3011 RMK A01 T01740013  RH  034%=      5-min Rain = 0
KCO1 172323Z 30005KT 17/01 A301 RMK A01 T01730012  RH  034%=      5-min Rain = 0
KCO1 172324Z 29005KT 17/01 A301 RMK A01 T01720011  RH  034%=      5-min Rain = 0
KCO1 172325Z 30004KT 17/01 A301 RMK A01 T01730012  RH  034%=      5-min Rain = 0
KCO1 172326Z 30006KT 17/01 A301 RMK A01 T01720012  RH  034%=      5-min Rain = 0
KCO1 172327Z 30004KT 17/01 A3011 RMK A01 T01720011  RH  034%=      5-min Rain = 0
KCO1 172328Z 29005KT 17/01 A3011 RMK A01 T01720012  RH  034%=      5-min Rain = 0
KCO1 172329Z 29005KT 17/01 A3011 RMK A01 T01710013  RH  034%=      5-min Rain = 0
KCO1 172330Z 30005KT 17/01 A3011 RMK A01 T01710013  RH  034%=      5-min Rain = 0
KCO1 172331Z 31005KT 17/01 A301 RMK A01 T01710013  RH  034%=      5-min Rain = 0
KCO1 172332Z 32005KT 17/01 A301 RMK A01 T01700013  RH  035%=      5-min Rain = 0
KCO1 172333Z 32004KT 17/01 A301 RMK A01 T01690014  RH  035%=      5-min Rain = 0
KCO1 172334Z 32005KT 17/01 A301 RMK A01 T01690014  RH  035%=      5-min Rain = 0
KCO1 172335Z 30003KT 17/01 A301 RMK A01 T01680014  RH  035%=      5-min Rain = 0
KCO1 172336Z 28003KT 17/01 A301 RMK A01 T01670012  RH  035%=      5-min Rain = 0
KCO1 172337Z 28003KT 17/01 A301 RMK A01 T01670013  RH  035%=      5-min Rain = 0
KCO1 172338Z 28003KT 17/01 A301 RMK A01 T01670013  RH  036%=      5-min Rain = 0
KCO1 172339Z 28002KT 17/01 A301 RMK A01 T01660013  RH  036%=      5-min Rain = 0
KCO1 172340Z 28002KT 17/01 A301 RMK A01 T01650014  RH  036%=      5-min Rain = 0
KCO1 172341Z 28002KT 16/01 A301 RMK A01 T01640013  RH  036%=      5-min Rain = 0
KCO1 172342Z 28002KT 16/01 A301 RMK A01 T01640014  RH  036%=      5-min Rain = 0
KCO1 172343Z 28002KT 16/01 A301 RMK A01 T01630014  RH  036%=      5-min Rain = 0
KCO1 172344Z 27002KT 16/01 A301 RMK A01 T01620014  RH  037%=      5-min Rain = 0
KCO1 172345Z 27002KT 16/01 A301 RMK A01 T01610014  RH  037%=      5-min Rain = 0
KCO1 172346Z 27002KT 16/02 A301 RMK A01 T01600015  RH  037%=      5-min Rain = 0
KCO1 172347Z 26002KT 16/02 A301 RMK A01 T01590015  RH  038%=      5-min Rain = 0
KCO1 172348Z 26002KT 16/02 A301 RMK A01 T01580015  RH  038%=      5-min Rain = 0
KCO1 172349Z 26001KT 16/02 A301 RMK A01 T01570015  RH  038%=      5-min Rain = 0
KCO1 172350Z 26002KT 16/02 A301 RMK A01 T01560015  RH  038%=      5-min Rain = 0
KCO1 172351Z 26002KT 16/02 A301 RMK A01 T01560016  RH  039%=      5-min Rain = 0
KCO1 172352Z 26001KT 16/02 A301 RMK A01 T01550016  RH  039%=      5-min Rain = 0
KCO1 172353Z 26002KT 15/02 A301 RMK A01 T01540016  RH  039%=      5-min Rain = 0
KCO1 172354Z 26002KT 15/02 A301 RMK A01 T01540017  RH  040%=      5-min Rain = 0
KCO1 172355Z 26002KT 15/02 A301 RMK A01 T01520017  RH  040%=      5-min Rain = 0
KCO1 172356Z 26002KT 15/02 A301 RMK A01 T01510016  RH  040%=      5-min Rain = 0
KCO1 172357Z 25002KT 15/02 A301 RMK A01 T01510017  RH  040%=      5-min Rain = 0
KCO1 172358Z 25002KT 15/02 A301 RMK A01 T01500016  RH  040%=      5-min Rain = 0
KCO1 172359Z 25003KT 15/02 A301 RMK A01 T01490016  RH  040%=      5-min Rain = 0
KCO1 180000Z 25003KT 15/02 A3011 RMK A01 T01490016  RH  041%=      5-min Rain = 0
KCO1 180001Z 26004KT 15/02 A3011 RMK A01 T01480015  RH  040%=      5-min Rain = 0
KCO1 180002Z 26004KT 15/02 A3011 RMK A01 T01480015  RH  040%=      5-min Rain = 0
KCO1 180003Z 25003KT 15/02 A3011 RMK A01 T01480015  RH  041%=      5-min Rain = 0
KCO1 180004Z 26004KT 15/02 A3011 RMK A01 T01480015  RH  041%=      5-min Rain = 0
KCO1 180005Z 26004KT 15/02 A3011 RMK A01 T01480016  RH  041%=      5-min Rain = 0
KCO1 180006Z 26005KT 15/02 A3011 RMK A01 T01480016  RH  041%=      5-min Rain = 0
KCO1 180007Z 26005KT 15/02 A3011 RMK A01 T01470016  RH  041%=      5-min Rain = 0
KCO1 180008Z 26006KT 15/02 A3011 RMK A01 T01460015  RH  041%=      5-min Rain = 0
KCO1 180009Z 27005KT 15/01 A3011 RMK A01 T01460014  RH  041%=      5-min Rain = 0
KCO1 180010Z 28005KT 15/01 A3011 RMK A01 T01470014  RH  040%=      5-min Rain = 0
KCO1 180011Z 28006KT 15/01 A3011 RMK A01 T01480014  RH  040%=      5-min Rain = 0
KCO1 180012Z 29006KT 15/01 A3011 RMK A01 T01490014  RH  040%=      5-min Rain = 0
KCO1 180013Z 29005KT 15/01 A301 RMK A01 T01500014  RH  040%=      5-min Rain = 0
KCO1 180014Z 29005KT 15/01 A301 RMK A01 T01500014  RH  040%=      5-min Rain = 0
KCO1 180015Z 30005KT 15/01 A301 RMK A01 T01500014  RH  040%=      5-min Rain = 0
KCO1 180016Z 30005KT 15/02 A301 RMK A01 T01500015  RH  040%=      5-min Rain = 0
KCO1 180017Z 30005KT 15/02 A301 RMK A01 T01490015  RH  040%=      5-min Rain = 0
KCO1 180018Z 30005KT 15/02 A301 RMK A01 T01480015  RH  041%=      5-min Rain = 0
KCO1 180019Z 30005KT 15/02 A301 RMK A01 T01460016  RH  041%=      5-min Rain = 0
KCO1 180020Z 30006KT 15/02 A301 RMK A01 T01450017  RH  042%=      5-min Rain = 0
KCO1 180021Z 30005KT 14/02 A301 RMK A01 T01430016  RH  042%=      5-min Rain = 0
KCO1 180022Z 30005KT 14/02 A301 RMK A01 T01430015  RH  042%=      5-min Rain = 0
KCO1 180023Z 29005KT 14/02 A3011 RMK A01 T01430016  RH  042%=      5-min Rain = 0
KCO1 180024Z 28004KT 14/02 A3011 RMK A01 T01420016  RH  042%=      5-min Rain = 0
KCO1 180025Z 24004KT 14/02 A3011 RMK A01 T01410016  RH  043%=      5-min Rain = 0
KCO1 180026Z 22004KT 14/02 A3011 RMK A01 T01390018  RH  044%=      5-min Rain = 0
KCO1 180027Z 22004KT 14/02 A3011 RMK A01 T01360018  RH  045%=      5-min Rain = 0
KCO1 180028Z 23005KT 14/02 A3011 RMK A01 T01350018  RH  045%=      5-min Rain = 0
KCO1 180029Z 23004KT 13/02 A3011 RMK A01 T01330018  RH  045%=      5-min Rain = 0
KCO1 180030Z 23004KT 13/02 A3011 RMK A01 T01320017  RH  046%=      5-min Rain = 0
KCO1 180031Z 24004KT 13/02 A3011 RMK A01 T01320017  RH  045%=      5-min Rain = 0
KCO1 180032Z 25003KT 13/02 A3011 RMK A01 T01320017  RH  045%=      5-min Rain = 0
KCO1 180033Z 26003KT 13/02 A3011 RMK A01 T01320016  RH  045%=      5-min Rain = 0
KCO1 180034Z 26003KT 13/02 A3011 RMK A01 T01320016  RH  045%=      5-min Rain = 0
KCO1 180035Z 27004KT 13/02 A3011 RMK A01 T01330016  RH  045%=      5-min Rain = 0
KCO1 180036Z 27004KT 13/02 A3011 RMK A01 T01330016  RH  045%=      5-min Rain = 0
KCO1 180037Z 27004KT 13/02 A3011 RMK A01 T01330016  RH  045%=      5-min Rain = 0
KCO1 180038Z 27005KT 13/02 A3011 RMK A01 T01340016  RH  045%=      5-min Rain = 0
KCO1 180039Z 27005KT 14/02 A3012 RMK A01 T01350016  RH  044%=      5-min Rain = 0
KCO1 180040Z 27005KT 14/02 A3012 RMK A01 T01350016  RH  044%=      5-min Rain = 0
KCO1 180041Z 27005KT 14/02 A3012 RMK A01 T01370016  RH  044%=      5-min Rain = 0
KCO1 180042Z 27005KT 14/02 A3012 RMK A01 T01380016  RH  044%=      5-min Rain = 0
KCO1 180043Z 27005KT 14/02 A3012 RMK A01 T01370016  RH  044%=      5-min Rain = 0
KCO1 180044Z 27005KT 14/02 A3012 RMK A01 T01370017  RH  044%=      5-min Rain = 0
KCO1 180045Z 26004KT 14/02 A3012 RMK A01 T01370016  RH  044%=      5-min Rain = 0
KCO1 180046Z 25003KT 14/02 A3012 RMK A01 T01360017  RH  044%=      5-min Rain = 0
KCO1 180047Z 24004KT 13/02 A3012 RMK A01 T01340016  RH  044%=      5-min Rain = 0
KCO1 180048Z 24004KT 13/02 A3012 RMK A01 T01330016  RH  045%=      5-min Rain = 0
KCO1 180049Z 24004KT 13/02 A3012 RMK A01 T01330016  RH  045%=      5-min Rain = 0
KCO1 180050Z 24004KT 13/02 A3012 RMK A01 T01310017  RH  046%=      5-min Rain = 0
KCO1 180051Z 24003KT 13/02 A3012 RMK A01 T01300017  RH  046%=      5-min Rain = 0
KCO1 180052Z 23003KT 13/02 A3012 RMK A01 T01300018  RH  046%=      5-min Rain = 0
KCO1 180053Z 23003KT 13/02 A3012 RMK A01 T01300018  RH  047%=      5-min Rain = 0
KCO1 180054Z 24004KT 13/02 A3012 RMK A01 T01290019  RH  047%=      5-min Rain = 0
KCO1 180055Z 24004KT 13/02 A3012 RMK A01 T01280018  RH  047%=      5-min Rain = 0
KCO1 180056Z 24004KT 13/02 A3012 RMK A01 T01270018  RH  048%=      5-min Rain = 0
KCO1 180057Z 24004KT 13/02 A3012 RMK A01 T01270019  RH  048%=      5-min Rain = 0
KCO1 180058Z 24004KT 13/02 A3012 RMK A01 T01270018  RH  048%=      5-min Rain = 0
KCO1 180059Z 24004KT 13/02 A3012 RMK A01 T01270018  RH  048%=      5-min Rain = 0
KCO1 180100Z 24003KT 13/02 A3012 RMK A01 T01270018  RH  048%=      5-min Rain = 0
KCO1 180101Z 24003KT 13/02 A3012 RMK A01 T01260018  RH  048%=      5-min Rain = 0
KCO1 180102Z 24003KT 12/02 A3012 RMK A01 T01240017  RH  048%=      5-min Rain = 0
KCO1 180103Z 24003KT 12/02 A3012 RMK A01 T01210016  RH  049%=      5-min Rain = 0
KCO1 180104Z 25003KT 12/02 A3012 RMK A01 T01190016  RH  049%=      5-min Rain = 0
KCO1 180105Z 25003KT 12/02 A3012 RMK A01 T01180017  RH  050%=      5-min Rain = 0
KCO1 180106Z 25003KT 12/02 A3012 RMK A01 T01170017  RH  050%=      5-min Rain = 0
KCO1 180107Z 25003KT 12/02 A3012 RMK A01 T01160017  RH  051%=      5-min Rain = 0
KCO1 180108Z 26003KT 12/02 A3012 RMK A01 T01160017  RH  051%=      5-min Rain = 0
KCO1 180109Z 26003KT 12/02 A3012 RMK A01 T01150017  RH  051%=      5-min Rain = 0
KCO1 180110Z 26003KT 12/02 A3012 RMK A01 T01150018  RH  051%=      5-min Rain = 0
KCO1 180111Z 27003KT 11/02 A3012 RMK A01 T01140018  RH  052%=      5-min Rain = 0
KCO1 180112Z 26003KT 11/02 A3012 RMK A01 T01130018  RH  052%=      5-min Rain = 0
KCO1 180113Z 26003KT 11/02 A3012 RMK A01 T01130018  RH  052%=      5-min Rain = 0
KCO1 180114Z 25002KT 11/02 A3012 RMK A01 T01120018  RH  052%=      5-min Rain = 0
KCO1 180115Z 24003KT 11/02 A3012 RMK A01 T01120018  RH  053%=      5-min Rain = 0
KCO1 180116Z 23003KT 11/02 A3012 RMK A01 T01120018  RH  052%=      5-min Rain = 0
KCO1 180117Z 22003KT 11/02 A3012 RMK A01 T01110018  RH  053%=      5-min Rain = 0
KCO1 180118Z 23003KT 11/02 A3012 RMK A01 T01090017  RH  053%=      5-min Rain = 0
KCO1 180119Z 24003KT 11/02 A3012 RMK A01 T01080017  RH  053%=      5-min Rain = 0
KCO1 180120Z 24004KT 11/02 A3012 RMK A01 T01080018  RH  054%=      5-min Rain = 0
KCO1 180121Z 24004KT 11/02 A3012 RMK A01 T01070018  RH  054%=      5-min Rain = 0
KCO1 180122Z 25004KT 11/02 A3012 RMK A01 T01080018  RH  054%=      5-min Rain = 0
KCO1 180123Z 25004KT 11/02 A3012 RMK A01 T01070018  RH  054%=      5-min Rain = 0
KCO1 180124Z 25004KT 11/02 A3013 RMK A01 T01070018  RH  054%=      5-min Rain = 0
KCO1 180125Z 25004KT 11/02 A3013 RMK A01 T01070018  RH  054%=      5-min Rain = 0
KCO1 180126Z 25005KT 11/02 A3013 RMK A01 T01070018  RH  054%=      5-min Rain = 0
KCO1 180127Z 26004KT 11/02 A3013 RMK A01 T01080018  RH  054%=      5-min Rain = 0
KCO1 180128Z 26004KT 11/02 A3013 RMK A01 T01070018  RH  054%=      5-min Rain = 0
KCO1 180129Z 26004KT 11/02 A3013 RMK A01 T01070018  RH  054%=      5-min Rain = 0
KCO1 180130Z 26004KT 11/02 A3013 RMK A01 T01070018  RH  054%=      5-min Rain = 0
KCO1 180131Z 27003KT 11/02 A3013 RMK A01 T01080017  RH  054%=      5-min Rain = 0
KCO1 180132Z 27004KT 11/02 A3013 RMK A01 T01090017  RH  053%=      5-min Rain = 0
KCO1 180133Z 27004KT 11/02 A3013 RMK A01 T01100017  RH  053%=      5-min Rain = 0
KCO1 180134Z 26003KT 11/02 A3013 RMK A01 T01100017  RH  053%=      5-min Rain = 0
KCO1 180135Z 25003KT 11/02 A3013 RMK A01 T01110018  RH  053%=      5-min Rain = 0
KCO1 180136Z 24004KT 11/02 A3013 RMK A01 T01100018  RH  053%=      5-min Rain = 0
KCO1 180137Z 23005KT 11/02 A3013 RMK A01 T01100019  RH  053%=      5-min Rain = 0
KCO1 180138Z 22005KT 11/02 A3013 RMK A01 T01100019  RH  054%=      5-min Rain = 0
KCO1 180139Z 23005KT 11/02 A3013 RMK A01 T01070018  RH  054%=      5-min Rain = 0
KCO1 180140Z 23005KT 10/02 A3013 RMK A01 T01040017  RH  055%=      5-min Rain = 0
KCO1 180141Z 23004KT 10/02 A3013 RMK A01 T01020017  RH  055%=      5-min Rain = 0
KCO1 180142Z 24004KT 10/02 A3013 RMK A01 T01010017  RH  056%=      5-min Rain = 0
KCO1 180143Z 24005KT 10/02 A3013 RMK A01 T01000016  RH  056%=      5-min Rain = 0
KCO1 180144Z 24004KT 10/02 A3013 RMK A01 T01010017  RH  056%=      5-min Rain = 0
KCO1 180145Z 23005KT 10/02 A3013 RMK A01 T01000017  RH  056%=      5-min Rain = 0
KCO1 180146Z 21005KT 10/02 A3013 RMK A01 T00990017  RH  056%=      5-min Rain = 0
KCO1 180147Z 19007KT 10/02 A3013 RMK A01 T00980016  RH  057%=      5-min Rain = 0
KCO1 180148Z 20007KT 10/02 A3013 RMK A01 T00960016  RH  057%=      5-min Rain = 0
KCO1 180149Z 21006KT 10/02 A3013 RMK A01 T00950017  RH  058%=      5-min Rain = 0
KCO1 180150Z 22006KT 10/02 A3013 RMK A01 T00950017  RH  058%=      5-min Rain = 0
KCO1 180151Z 22005KT 10/02 A3013 RMK A01 T00950017  RH  058%=      5-min Rain = 0
KCO1 180152Z 23005KT 10/02 A3013 RMK A01 T00960017  RH  058%=      5-min Rain = 0
KCO1 180153Z 23006KT 10/02 A3013 RMK A01 T00970017  RH  058%=      5-min Rain = 0
KCO1 180154Z 23006KT 10/02 A3013 RMK A01 T00970017  RH  058%=      5-min Rain = 0
KCO1 180155Z 23006KT 10/02 A3013 RMK A01 T00960017  RH  058%=      5-min Rain = 0
KCO1 180156Z 23005KT 10/02 A3013 RMK A01 T00960018  RH  058%=      5-min Rain = 0
KCO1 180157Z 23005KT 10/02 A3013 RMK A01 T00960018  RH  058%=      5-min Rain = 0
KCO1 180158Z 23005KT 10/02 A3013 RMK A01 T00960017  RH  058%=      5-min Rain = 0
KCO1 180159Z 23005KT 10/02 A3012 RMK A01 T00970018  RH  058%=      5-min Rain = 0
KCO1 180200Z 23005KT 10/02 A3012 RMK A01 T00980018  RH  058%=      5-min Rain = 0
KCO1 180201Z 22005KT 10/02 A3013 RMK A01 T00980018  RH  057%=      5-min Rain = 0
KCO1 180202Z 19006KT 10/02 A3013 RMK A01 T00990018  RH  057%=      5-min Rain = 0
KCO1 180203Z 20006KT 10/02 A3013 RMK A01 T00980017  RH  057%=      5-min Rain = 0
KCO1 180204Z 20006KT 10/02 A3013 RMK A01 T00960016  RH  057%=      5-min Rain = 0
KCO1 180205Z 20006KT 10/02 A3013 RMK A01 T00950016  RH  058%=      5-min Rain = 0
KCO1 180206Z 20006KT 09/02 A3013 RMK A01 T00930015  RH  058%=      5-min Rain = 0
KCO1 180207Z 21006KT 09/02 A3013 RMK A01 T00910015  RH  059%=      5-min Rain = 0
KCO1 180208Z 21006KT 09/01 A3012 RMK A01 T00890014  RH  059%=      5-min Rain = 0
KCO1 180209Z 22005KT 09/01 A3012 RMK A01 T00880014  RH  060%=      5-min Rain = 0
KCO1 180210Z 22004KT 09/02 A3012 RMK A01 T00880015  RH  060%=      5-min Rain = 0
KCO1 180211Z 22005KT 09/02 A3012 RMK A01 T00870015  RH  060%=      5-min Rain = 0
KCO1 180212Z 23005KT 09/02 A3012 RMK A01 T00870015  RH  061%=      5-min Rain = 0
KCO1 180213Z 23005KT 09/02 A3012 RMK A01 T00870015  RH  061%=      5-min Rain = 0
KCO1 180214Z 23005KT 09/02 A3012 RMK A01 T00880015  RH  060%=      5-min Rain = 0
KCO1 180215Z 21005KT 09/02 A3012 RMK A01 T00890016  RH  060%=      5-min Rain = 0
KCO1 180216Z 20007KT 09/02 A3012 RMK A01 T00900015  RH  060%=      5-min Rain = 0
KCO1 180217Z 20007KT 09/02 A3013 RMK A01 T00900015  RH  059%=      5-min Rain = 0
KCO1 180218Z 20007KT 09/01 A3013 RMK A01 T00890014  RH  059%=      5-min Rain = 0
KCO1 180219Z 20006KT 09/01 A3013 RMK A01 T00880013  RH  060%=      5-min Rain = 0
KCO1 180220Z 20007KT 09/01 A3013 RMK A01 T00860013  RH  060%=      5-min Rain = 0
KCO1 180221Z 20007KT 09/01 A3013 RMK A01 T00850012  RH  060%=      5-min Rain = 0
KCO1 180222Z 21007KT 08/01 A3013 RMK A01 T00830012  RH  061%=      5-min Rain = 0
KCO1 180223Z 21007KT 08/01 A3013 RMK A01 T00830013  RH  061%=      5-min Rain = 0
KCO1 180224Z 21007KT 08/01 A3013 RMK A01 T00830013  RH  061%=      5-min Rain = 0
KCO1 180225Z 21007KT 08/01 A3013 RMK A01 T00840013  RH  061%=      5-min Rain = 0
KCO1 180226Z 21006KT 09/01 A3013 RMK A01 T00850014  RH  061%=      5-min Rain = 0
KCO1 180227Z 21007KT 09/01 A3013 RMK A01 T00860013  RH  061%=      5-min Rain = 0
KCO1 180228Z 21007KT 09/01 A3013 RMK A01 T00860014  RH  060%=      5-min Rain = 0
KCO1 180229Z 21007KT 09/01 A3013 RMK A01 T00860014  RH  060%=      5-min Rain = 0
KCO1 180230Z 21006KT 09/01 A3013 RMK A01 T00870014  RH  060%=      5-min Rain = 0
KCO1 180231Z 21006KT 09/01 A3013 RMK A01 T00860014  RH  060%=      5-min Rain = 0
KCO1 180232Z 20006KT 09/01 A3013 RMK A01 T00850014  RH  061%=      5-min Rain = 0
KCO1 180233Z 20006KT 08/01 A3013 RMK A01 T00840013  RH  061%=      5-min Rain = 0
KCO1 180234Z 20006KT 08/01 A3013 RMK A01 T00830013  RH  061%=      5-min Rain = 0
KCO1 180235Z 20006KT 08/01 A3013 RMK A01 T00820013  RH  062%=      5-min Rain = 0
KCO1 180236Z 21006KT 08/01 A3013 RMK A01 T00820013  RH  062%=      5-min Rain = 0
KCO1 180237Z 21006KT 08/01 A3013 RMK A01 T00820013  RH  061%=      5-min Rain = 0
KCO1 180238Z 21006KT 08/01 A3013 RMK A01 T00830013  RH  061%=      5-min Rain = 0
KCO1 180239Z 21006KT 08/01 A3013 RMK A01 T00830013  RH  061%=      5-min Rain = 0
KCO1 180240Z 22006KT 08/01 A3013 RMK A01 T00830013  RH  062%=      5-min Rain = 0
KCO1 180241Z 22006KT 08/01 A3013 RMK A01 T00820013  RH  061%=      5-min Rain = 0
KCO1 180242Z 22006KT 08/01 A3013 RMK A01 T00820013  RH  061%=      5-min Rain = 0
KCO1 180243Z 22006KT 08/01 A3013 RMK A01 T00820013  RH  062%=      5-min Rain = 0
KCO1 180244Z 22006KT 08/01 A3013 RMK A01 T00820013  RH  062%=      5-min Rain = 0
KCO1 180245Z 22006KT 08/01 A3013 RMK A01 T00830013  RH  062%=      5-min Rain = 0
KCO1 180246Z 22007KT 08/01 A3013 RMK A01 T00830013  RH  061%=      5-min Rain = 0
KCO1 180247Z 22006KT 08/01 A3013 RMK A01 T00830013  RH  061%=      5-min Rain = 0
KCO1 180248Z 22006KT 09/01 A3013 RMK A01 T00850013  RH  061%=      5-min Rain = 0
KCO1 180249Z 22006KT 09/01 A3013 RMK A01 T00850013  RH  061%=      5-min Rain = 0
KCO1 180250Z 22006KT 08/01 A3013 RMK A01 T00840013  RH  061%=      5-min Rain = 0
KCO1 180251Z 22006KT 08/01 A3013 RMK A01 T00840013  RH  061%=      5-min Rain = 0
KCO1 180252Z 23006KT 08/01 A3013 RMK A01 T00830013  RH  061%=      5-min Rain = 0
KCO1 180253Z 23006KT 08/01 A3013 RMK A01 T00840013  RH  061%=      5-min Rain = 0
KCO1 180254Z 23006KT 09/01 A3013 RMK A01 T00850013  RH  061%=      5-min Rain = 0
KCO1 180255Z 23006KT 09/01 A3013 RMK A01 T00850013  RH  061%=      5-min Rain = 0
KCO1 180256Z 23005KT 09/01 A3013 RMK A01 T00850014  RH  061%=      5-min Rain = 0
KCO1 180257Z 23006KT 09/01 A3013 RMK A01 T00850014  RH  061%=      5-min Rain = 0
KCO1 180258Z 22007KT 09/01 A3013 RMK A01 T00850014  RH  061%=      5-min Rain = 0
KCO1 180259Z 22006KT 09/01 A3013 RMK A01 T00850014  RH  061%=      5-min Rain = 0
KCO1 180300Z 22006KT 08/01 A3013 RMK A01 T00840013  RH  061%=      5-min Rain = 0
KCO1 180301Z 22006KT 08/01 A3013 RMK A01 T00840013  RH  061%=      5-min Rain = 0
KCO1 180302Z 22006KT 08/01 A3013 RMK A01 T00830013  RH  061%=      5-min Rain = 0
KCO1 180303Z 22006KT 08/01 A3013 RMK A01 T00830013  RH  061%=      5-min Rain = 0
KCO1 180304Z 22006KT 08/01 A3013 RMK A01 T00830013  RH  061%=      5-min Rain = 0
KCO1 180305Z 21006KT 08/01 A3013 RMK A01 T00830012  RH  061%=      5-min Rain = 0
KCO1 180306Z 20006KT 08/01 A3013 RMK A01 T00830012  RH  061%=      5-min Rain = 0
KCO1 180307Z 21007KT 08/01 A3013 RMK A01 T00810012  RH  062%=      5-min Rain = 0
KCO1 180308Z 21006KT 08/01 A3013 RMK A01 T00800012  RH  062%=      5-min Rain = 0
KCO1 180309Z 21006KT 08/01 A3013 RMK A01 T00800012  RH  062%=      5-min Rain = 0
KCO1 180310Z 21006KT 08/01 A3013 RMK A01 T00800012  RH  062%=      5-min Rain = 0
KCO1 180311Z 21006KT 08/01 A3013 RMK A01 T00800012  RH  062%=      5-min Rain = 0
KCO1 180312Z 20006KT 08/01 A3013 RMK A01 T00790012  RH  063%=      5-min Rain = 0
KCO1 180313Z 21006KT 08/01 A3013 RMK A01 T00780012  RH  063%=      5-min Rain = 0
KCO1 180314Z 21007KT 08/01 A3013 RMK A01 T00770011  RH  063%=      5-min Rain = 0
KCO1 180315Z 21007KT 08/01 A3013 RMK A01 T00780012  RH  063%=      5-min Rain = 0
KCO1 180316Z 21007KT 08/01 A3013 RMK A01 T00780012  RH  063%=      5-min Rain = 0
KCO1 180317Z 21006KT 08/01 A3013 RMK A01 T00790011  RH  062%=      5-min Rain = 0
KCO1 180318Z 20006KT 08/01 A3013 RMK A01 T00790011  RH  062%=      5-min Rain = 0
KCO1 180319Z 20006KT 08/01 A3013 RMK A01 T00790011  RH  062%=      5-min Rain = 0
KCO1 180320Z 20006KT 08/01 A3013 RMK A01 T00800012  RH  062%=      5-min Rain = 0
KCO1 180321Z 20006KT 08/01 A3013 RMK A01 T00800011  RH  062%=      5-min Rain = 0
KCO1 180322Z 20006KT 08/01 A3013 RMK A01 T00800012  RH  062%=      5-min Rain = 0
KCO1 180323Z 21006KT 08/01 A3014 RMK A01 T00780012  RH  063%=      5-min Rain = 0
KCO1 180324Z 21006KT 08/01 A3014 RMK A01 T00780012  RH  063%=      5-min Rain = 0
KCO1 180325Z 21006KT 08/01 A3014 RMK A01 T00780013  RH  063%=      5-min Rain = 0
KCO1 180326Z 21006KT 08/01 A3014 RMK A01 T00780012  RH  063%=      5-min Rain = 0
KCO1 180327Z 21006KT 08/01 A3013 RMK A01 T00790012  RH  063%=      5-min Rain = 0
KCO1 180328Z 21007KT 08/01 A3013 RMK A01 T00790012  RH  063%=      5-min Rain = 0
KCO1 180329Z 21007KT 08/01 A3013 RMK A01 T00790012  RH  062%=      5-min Rain = 0
KCO1 180330Z 21006KT 08/01 A3013 RMK A01 T00790012  RH  062%=      5-min Rain = 0
KCO1 180331Z 21006KT 08/01 A3013 RMK A01 T00790012  RH  063%=      5-min Rain = 0
KCO1 180332Z 20006KT 08/01 A3013 RMK A01 T00790012  RH  063%=      5-min Rain = 0
KCO1 180333Z 20006KT 08/01 A3013 RMK A01 T00780012  RH  063%=      5-min Rain = 0
KCO1 180334Z 20006KT 08/01 A3013 RMK A01 T00780012  RH  063%=      5-min Rain = 0
KCO1 180335Z 20006KT 08/01 A3013 RMK A01 T00780012  RH  063%=      5-min Rain = 0
KCO1 180336Z 20006KT 08/01 A3013 RMK A01 T00770011  RH  063%=      5-min Rain = 0
KCO1 180337Z 20006KT 08/01 A3012 RMK A01 T00750011  RH  064%=      5-min Rain = 0
KCO1 180338Z 21006KT 08/01 A3012 RMK A01 T00750011  RH  064%=      5-min Rain = 0
KCO1 180339Z 21006KT 07/01 A3013 RMK A01 T00740011  RH  064%=      5-min Rain = 0
KCO1 180340Z 21006KT 07/01 A3013 RMK A01 T00730011  RH  065%=      5-min Rain = 0
KCO1 180341Z 21006KT 07/01 A3013 RMK A01 T00730011  RH  065%=      5-min Rain = 0
KCO1 180342Z 21006KT 07/01 A3013 RMK A01 T00740011  RH  065%=      5-min Rain = 0
KCO1 180343Z 20006KT 07/01 A3013 RMK A01 T00730011  RH  065%=      5-min Rain = 0
KCO1 180344Z 20006KT 07/01 A3013 RMK A01 T00740011  RH  065%=      5-min Rain = 0
KCO1 180345Z 20006KT 07/01 A3013 RMK A01 T00740011  RH  065%=      5-min Rain = 0
KCO1 180346Z 20006KT 07/01 A3013 RMK A01 T00730011  RH  065%=      5-min Rain = 0
KCO1 180347Z 20006KT 07/01 A3013 RMK A01 T00720011  RH  065%=      5-min Rain = 0
KCO1 180348Z 20006KT 07/01 A3013 RMK A01 T00730011  RH  065%=      5-min Rain = 0
KCO1 180349Z 20006KT 07/01 A3013 RMK A01 T00730011  RH  065%=      5-min Rain = 0
KCO1 180350Z 20006KT 07/01 A3013 RMK A01 T00730012  RH  065%=      5-min Rain = 0
KCO1 180351Z 21006KT 07/01 A3013 RMK A01 T00720011  RH  065%=      5-min Rain = 0
KCO1 180352Z 21005KT 07/01 A3013 RMK A01 T00710011  RH  066%=      5-min Rain = 0
KCO1 180353Z 21005KT 07/01 A3013 RMK A01 T00710011  RH  066%=      5-min Rain = 0
KCO1 180354Z 21005KT 07/01 A3013 RMK A01 T00700012  RH  066%=      5-min Rain = 0
KCO1 180355Z 20005KT 07/01 A3012 RMK A01 T00700011  RH  066%=      5-min Rain = 0
KCO1 180356Z 20005KT 07/01 A3012 RMK A01 T00700012  RH  066%=      5-min Rain = 0
KCO1 180357Z 20005KT 07/01 A3012 RMK A01 T00700012  RH  066%=      5-min Rain = 0
KCO1 180358Z 21006KT 07/01 A3012 RMK A01 T00700012  RH  066%=      5-min Rain = 0
KCO1 180359Z 21006KT 07/01 A3012 RMK A01 T00700011  RH  066%=      5-min Rain = 0
KCO1 180400Z 21006KT 07/01 A3012 RMK A01 T00690011  RH  067%=      5-min Rain = 0
KCO1 180401Z 20006KT 07/01 A3012 RMK A01 T00680011  RH  067%=      5-min Rain = 0
KCO1 180402Z 20006KT 07/01 A3012 RMK A01 T00680012  RH  067%=      5-min Rain = 0
KCO1 180403Z 20006KT 07/01 A3012 RMK A01 T00680012  RH  067%=      5-min Rain = 0
KCO1 180404Z 20006KT 07/01 A3012 RMK A01 T00680012  RH  067%=      5-min Rain = 0
KCO1 180405Z 20006KT 07/01 A3013 RMK A01 T00680012  RH  067%=      5-min Rain = 0
KCO1 180406Z 19006KT 07/01 A3013 RMK A01 T00680012  RH  067%=      5-min Rain = 0
KCO1 180407Z 19006KT 07/01 A3013 RMK A01 T00670011  RH  068%=      5-min Rain = 0
KCO1 180408Z 20006KT 07/01 A3013 RMK A01 T00670011  RH  068%=      5-min Rain = 0
KCO1 180409Z 20006KT 07/01 A3013 RMK A01 T00670011  RH  068%=      5-min Rain = 0
KCO1 180410Z 20006KT 07/01 A3013 RMK A01 T00660011  RH  068%=      5-min Rain = 0
KCO1 180411Z 20006KT 07/01 A3013 RMK A01 T00670011  RH  068%=      5-min Rain = 0
KCO1 180412Z 20006KT 07/01 A3012 RMK A01 T00670011  RH  067%=      5-min Rain = 0
KCO1 180413Z 20006KT 07/01 A3012 RMK A01 T00680011  RH  067%=      5-min Rain = 0
KCO1 180414Z 20005KT 07/01 A3012 RMK A01 T00680011  RH  067%=      5-min Rain = 0
KCO1 180415Z 20005KT 07/01 A3013 RMK A01 T00690011  RH  067%=      5-min Rain = 0
KCO1 180416Z 20005KT 07/01 A3013 RMK A01 T00690011  RH  067%=      5-min Rain = 0
KCO1 180417Z 20005KT 07/01 A3013 RMK A01 T00690012  RH  067%=      5-min Rain = 0
KCO1 180418Z 20005KT 07/01 A3013 RMK A01 T00690012  RH  067%=      5-min Rain = 0
KCO1 180419Z 20006KT 07/01 A3013 RMK A01 T00680011  RH  067%=      5-min Rain = 0
KCO1 180420Z 20006KT 07/01 A3013 RMK A01 T00680012  RH  067%=      5-min Rain = 0
KCO1 180421Z 21006KT 07/01 A3013 RMK A01 T00680012  RH  068%=      5-min Rain = 0
KCO1 180422Z 21006KT 07/01 A3013 RMK A01 T00680012  RH  068%=      5-min Rain = 0
KCO1 180423Z 20006KT 07/01 A3012 RMK A01 T00680012  RH  068%=      5-min Rain = 0
KCO1 180424Z 20006KT 07/01 A3012 RMK A01 T00670012  RH  068%=      5-min Rain = 0
KCO1 180425Z 20006KT 07/01 A3012 RMK A01 T00670012  RH  068%=      5-min Rain = 0
KCO1 180426Z 20006KT 07/01 A3012 RMK A01 T00680011  RH  067%=      5-min Rain = 0
KCO1 180427Z 20005KT 07/01 A3012 RMK A01 T00670011  RH  067%=      5-min Rain = 0
KCO1 180428Z 20005KT 07/01 A3012 RMK A01 T00670011  RH  067%=      5-min Rain = 0
KCO1 180429Z 20006KT 07/01 A3012 RMK A01 T00660011  RH  068%=      5-min Rain = 0
KCO1 180430Z 20006KT 07/01 A3012 RMK A01 T00660011  RH  068%=      5-min Rain = 0
KCO1 180431Z 20006KT 07/01 A3012 RMK A01 T00660011  RH  068%=      5-min Rain = 0
KCO1 180432Z 20005KT 07/01 A3012 RMK A01 T00650011  RH  068%=      5-min Rain = 0
KCO1 180433Z 21006KT 07/01 A3012 RMK A01 T00650011  RH  068%=      5-min Rain = 0
KCO1 180434Z 21006KT 07/01 A3012 RMK A01 T00650011  RH  068%=      5-min Rain = 0
KCO1 180435Z 20006KT 07/01 A3012 RMK A01 T00650010  RH  068%=      5-min Rain = 0
KCO1 180436Z 20006KT 07/01 A3012 RMK A01 T00650010  RH  068%=      5-min Rain = 0
KCO1 180437Z 20006KT 07/01 A3012 RMK A01 T00650010  RH  068%=      5-min Rain = 0
KCO1 180438Z 20005KT 07/01 A3012 RMK A01 T00650010  RH  068%=      5-min Rain = 0
KCO1 180439Z 20005KT 06/01 A3012 RMK A01 T00640010  RH  068%=      5-min Rain = 0
KCO1 180440Z 20006KT 06/01 A3012 RMK A01 T00630010  RH  069%=      5-min Rain = 0
KCO1 180441Z 20005KT 06/01 A3012 RMK A01 T00630010  RH  069%=      5-min Rain = 0
KCO1 180442Z 20005KT 06/01 A3012 RMK A01 T00630010  RH  069%=      5-min Rain = 0
KCO1 180443Z 20005KT 06/01 A3012 RMK A01 T00630010  RH  069%=      5-min Rain = 0
KCO1 180444Z 20005KT 06/01 A3012 RMK A01 T00630010  RH  069%=      5-min Rain = 0
KCO1 180445Z 20006KT 06/01 A3012 RMK A01 T00630010  RH  069%=      5-min Rain = 0
KCO1 180446Z 20006KT 06/01 A3012 RMK A01 T00630010  RH  069%=      5-min Rain = 0
KCO1 180447Z 20006KT 06/01 A3012 RMK A01 T00630010  RH  069%=      5-min Rain = 0
KCO1 180448Z 20006KT 06/01 A3012 RMK A01 T00640011  RH  069%=      5-min Rain = 0
KCO1 180449Z 20006KT 06/01 A3012 RMK A01 T00640011  RH  069%=      5-min Rain = 0
KCO1 180450Z 19006KT 06/01 A3012 RMK A01 T00640011  RH  068%=      5-min Rain = 0
KCO1 180451Z 19007KT 07/01 A3012 RMK A01 T00650011  RH  068%=      5-min Rain = 0
KCO1 180452Z 19007KT 07/01 A3012 RMK A01 T00650010  RH  068%=      5-min Rain = 0
KCO1 180453Z 20007KT 06/01 A3012 RMK A01 T00640010  RH  068%=      5-min Rain = 0
KCO1 180454Z 20007KT 06/01 A3012 RMK A01 T00640010  RH  068%=      5-min Rain = 0
KCO1 180455Z 20007KT 07/01 A3012 RMK A01 T00650010  RH  068%=      5-min Rain = 0
KCO1 180456Z 20006KT 07/01 A3012 RMK A01 T00660010  RH  068%=      5-min Rain = 0
KCO1 180457Z 20006KT 07/01 A3012 RMK A01 T00660010  RH  067%=      5-min Rain = 0
KCO1 180458Z 20006KT 07/01 A3012 RMK A01 T00660010  RH  067%=      5-min Rain = 0
KCO1 180459Z 20006KT 07/01 A3012 RMK A01 T00660010  RH  067%=      5-min Rain = 0
KCO1 180500Z 20007KT 07/01 A3012 RMK A01 T00660010  RH  067%=      5-min Rain = 0
KCO1 180501Z 20007KT 07/01 A3012 RMK A01 T00660010  RH  067%=      5-min Rain = 0
KCO1 180502Z 20007KT 07/01 A3012 RMK A01 T00670010  RH  067%=      5-min Rain = 0
KCO1 180503Z 20007KT 07/01 A3012 RMK A01 T00670010  RH  067%=      5-min Rain = 0
KCO1 180504Z 20007KT 07/01 A3012 RMK A01 T00670010  RH  067%=      5-min Rain = 0
KCO1 180505Z 20006KT 07/01 A3012 RMK A01 T00670010  RH  067%=      5-min Rain = 0
KCO1 180506Z 20006KT 07/01 A3012 RMK A01 T00670010  RH  067%=      5-min Rain = 0
KCO1 180507Z 20006KT 07/01 A3012 RMK A01 T00670010  RH  067%=      5-min Rain = 0
KCO1 180508Z 20006KT 07/01 A3012 RMK A01 T00670010  RH  067%=      5-min Rain = 0
KCO1 180509Z 20006KT 07/01 A3012 RMK A01 T00660010  RH  067%=      5-min Rain = 0
KCO1 180510Z 19006KT 07/01 A3012 RMK A01 T00660009  RH  067%=      5-min Rain = 0
KCO1 180511Z 19007KT 07/01 A3012 RMK A01 T00650009  RH  068%=      5-min Rain = 0
KCO1 180512Z 19007KT 06/01 A3012 RMK A01 T00640010  RH  068%=      5-min Rain = 0
KCO1 180513Z 19008KT 06/01 A3012 RMK A01 T00640010  RH  068%=      5-min Rain = 0
KCO1 180514Z 20008KT 06/01 A3012 RMK A01 T00640010  RH  068%=      5-min Rain = 0
KCO1 180515Z 20008KT 06/01 A3011 RMK A01 T00640010  RH  068%=      5-min Rain = 0
KCO1 180516Z 20008KT 07/01 A3011 RMK A01 T00650010  RH  068%=      5-min Rain = 0
KCO1 180517Z 20008KT 07/01 A3011 RMK A01 T00650010  RH  068%=      5-min Rain = 0
KCO1 180518Z 20008KT 07/01 A3011 RMK A01 T00650009  RH  068%=      5-min Rain = 0
KCO1 180519Z 20008KT 07/01 A3011 RMK A01 T00660010  RH  067%=      5-min Rain = 0
KCO1 180520Z 20008KT 07/01 A3011 RMK A01 T00660009  RH  067%=      5-min Rain = 0
KCO1 180521Z 20007KT 07/01 A3011 RMK A01 T00660009  RH  067%=      5-min Rain = 0
KCO1 180522Z 20007KT 07/01 A3011 RMK A01 T00660009  RH  067%=      5-min Rain = 0
KCO1 180523Z 20007KT 07/01 A3011 RMK A01 T00660009  RH  067%=      5-min Rain = 0
KCO1 180524Z 20007KT 07/01 A3011 RMK A01 T00660009  RH  067%=      5-min Rain = 0
KCO1 180525Z 20007KT 07/01 A3011 RMK A01 T00650009  RH  067%=      5-min Rain = 0
KCO1 180526Z 20007KT 07/01 A3011 RMK A01 T00650009  RH  067%=      5-min Rain = 0
KCO1 180527Z 20007KT 07/01 A3011 RMK A01 T00650009  RH  067%=      5-min Rain = 0
KCO1 180528Z 20007KT 07/01 A3011 RMK A01 T00660009  RH  067%=      5-min Rain = 0
KCO1 180529Z 19006KT 07/01 A3011 RMK A01 T00660009  RH  067%=      5-min Rain = 0
KCO1 180530Z 19006KT 07/01 A3011 RMK A01 T00650009  RH  067%=      5-min Rain = 0
KCO1 180531Z 20006KT 07/01 A3011 RMK A01 T00650009  RH  067%=      5-min Rain = 0
KCO1 180532Z 20006KT 07/01 A3011 RMK A01 T00650009  RH  067%=      5-min Rain = 0
KCO1 180533Z 20006KT 07/01 A3011 RMK A01 T00650009  RH  068%=      5-min Rain = 0
KCO1 180534Z 20006KT 06/01 A3011 RMK A01 T00640009  RH  068%=      5-min Rain = 0
KCO1 180535Z 20006KT 06/01 A3011 RMK A01 T00640009  RH  068%=      5-min Rain = 0
KCO1 180536Z 20005KT 06/01 A3011 RMK A01 T00630009  RH  068%=      5-min Rain = 0
KCO1 180537Z 20005KT 06/01 A3011 RMK A01 T00620009  RH  069%=      5-min Rain = 0
KCO1 180538Z 21005KT 06/01 A3011 RMK A01 T00620009  RH  069%=      5-min Rain = 0
KCO1 180539Z 20005KT 06/01 A3011 RMK A01 T00610009  RH  069%=      5-min Rain = 0
KCO1 180540Z 20006KT 06/01 A3011 RMK A01 T00620009  RH  069%=      5-min Rain = 0
KCO1 180541Z 20005KT 06/01 A3011 RMK A01 T00610009  RH  069%=      5-min Rain = 0
KCO1 180542Z 20006KT 06/01 A3011 RMK A01 T00600008  RH  069%=      5-min Rain = 0
KCO1 180543Z 20006KT 06/01 A3011 RMK A01 T00590008  RH  070%=      5-min Rain = 0
KCO1 180544Z 20006KT 06/01 A3011 RMK A01 T00590008  RH  070%=      5-min Rain = 0
KCO1 180545Z 20006KT 06/01 A3011 RMK A01 T00580009  RH  070%=      5-min Rain = 0
KCO1 180546Z 20007KT 06/01 A3011 RMK A01 T00580009  RH  071%=      5-min Rain = 0
KCO1 180547Z 20007KT 06/01 A3011 RMK A01 T00580009  RH  071%=      5-min Rain = 0
KCO1 180548Z 20007KT 06/01 A3011 RMK A01 T00580009  RH  071%=      5-min Rain = 0
KCO1 180549Z 20007KT 06/01 A3011 RMK A01 T00590009  RH  071%=      5-min Rain = 0
KCO1 180550Z 20007KT 06/01 A3011 RMK A01 T00600010  RH  070%=      5-min Rain = 0
KCO1 180551Z 20007KT 06/01 A301 RMK A01 T00600010  RH  070%=      5-min Rain = 0
KCO1 180552Z 20007KT 06/01 A301 RMK A01 T00600010  RH  070%=      5-min Rain = 0
KCO1 180553Z 20008KT 06/01 A301 RMK A01 T00600010  RH  070%=      5-min Rain = 0
KCO1 180554Z 20008KT 06/01 A301 RMK A01 T00600010  RH  070%=      5-min Rain = 0
KCO1 180555Z 20007KT 06/01 A301 RMK A01 T00610010  RH  070%=      5-min Rain = 0
KCO1 180556Z 20007KT 06/01 A301 RMK A01 T00620010  RH  069%=      5-min Rain = 0
KCO1 180557Z 20007KT 06/01 A301 RMK A01 T00620010  RH  069%=      5-min Rain = 0
KCO1 180558Z 20007KT 06/01 A301 RMK A01 T00620010  RH  069%=      5-min Rain = 0
KCO1 180559Z 20007KT 06/01 A301 RMK A01 T00620010  RH  069%=      5-min Rain = 0

Page generated in 0.1402 seconds.